Another Hard Day at the Office Weather Stats

 
 
 

High monthly outside Temperature, 24.6 , C
Low monthly outside Temperature, 6.2 , C
High yearly outside Temperature, 31.9 , C
Low yearly outside Temperature, 0.7 , C

Low monthly barometer, 993.6 , mb
High monthly barometer, 1028.3 , mb
Low yearly barometer, 976.8 , mb
High yearly barometer 1035.7 , mb

High wind speed, 14.0 , mph
Time of High wind speed, 14:56 , mph
High monthly wind speed, 54.0 , mph
High yearly wind speed, 64.0 , mph

 

 




3123
                    Temp     Hi    Low   Out    Dew  Wind  Wind   Wind    Hi    Hi   Wind   Heat    THW                Rain    Heat    Cool    In     In    In     In     In   In Air  Wind  Wind    ISS   Arc.
  Date    Time     Out   Temp   Temp   Hum    Pt. Speed   Dir    Run Speed   Dir  Chill  Index  Index   Bar    Rain  Rate    D-D     D-D    Temp   Hum    Dew   Heat    EMC Density  Samp   Tx   Recept  Int.
---------------------------------------------------------------------------------------------------------------------------------------------------------------------------------------------------------------
30/10/14   0:05   15.1   15.1   15.1    98   14.7   4.0     E   0.33   7.0     E   15.1   15.3   15.3  1016.9  0.00   0.0   0.011   0.000   25.2    59   16.6   25.6  10.66 1.1662    116    1    100.0    5 
30/10/14   0:10   15.1   15.1   15.1    98   14.7   5.0     E   0.42   7.0     E   14.9   15.3   15.2  1016.9  0.00   0.0   0.011   0.000   25.2    59   16.6   25.6  10.66 1.1661    117    1    100.0    5 
30/10/14   0:15   15.1   15.1   15.1    98   14.7   4.0     E   0.33   6.0     E   15.1   15.3   15.3  1016.9  0.00   0.0   0.011   0.000   25.1    59   16.5   25.5  10.66 1.1664    116    1    100.0    5 
30/10/14   0:20   15.1   15.1   15.1    98   14.7   4.0     E   0.33   6.0     E   15.1   15.3   15.3  1016.9  0.00   0.0   0.011   0.000   25.1    59   16.5   25.5  10.66 1.1664    117    1    100.0    5 
30/10/14   0:25   15.1   15.1   15.1    98   14.7   4.0     E   0.33   6.0     E   15.1   15.3   15.3  1016.9  0.00   0.0   0.011   0.000   25.1    59   16.5   25.4  10.67 1.1667    117    1    100.0    5 
30/10/14   0:30   15.1   15.1   15.1    98   14.7   5.0     E   0.42   7.0     E   14.9   15.3   15.2  1016.8  0.00   0.0   0.011   0.000   25.1    59   16.5   25.4  10.67 1.1666    117    1    100.0    5 
30/10/14   0:35   15.1   15.1   15.1    98   14.7   4.0   ESE   0.33   7.0   ESE   15.1   15.3   15.3  1016.8  0.00   0.0   0.011   0.000   25.1    59   16.5   25.4  10.67 1.1666    117    1    100.0    5 
30/10/14   0:40   15.1   15.1   15.1    98   14.7   4.0   ESE   0.33   7.0   ESE   15.1   15.3   15.3  1016.8  0.20   0.0   0.011   0.000   25.1    59   16.5   25.4  10.67 1.1665    117    1    100.0    5 
30/10/14   0:45   15.0   15.1   15.0    98   14.7   5.0   ESE   0.42   7.0   ESE   14.9   15.3   15.2  1016.9  0.00   0.0   0.012   0.000   25.0    59   16.4   25.4  10.67 1.1670    116    1    100.0    5 
30/10/14   0:50   15.0   15.0   15.0    98   14.7   4.0   ESE   0.33   6.0     E   15.0   15.3   15.3  1016.9  0.00   0.0   0.012   0.000   25.0    59   16.4   25.4  10.67 1.1670    116    1    100.0    5 
30/10/14   0:55   14.9   15.0   14.9    98   14.6   5.0     E   0.42   7.0     E   14.8   15.2   15.1  1016.7  0.00   0.0   0.012   0.000   25.0    59   16.4   25.4  10.67 1.1668    117    1    100.0    5 
30/10/14   1:00   15.0   15.0   15.0    98   14.7   4.0   ESE   0.33   7.0     E   15.0   15.3   15.3  1016.9  0.00   0.0   0.012   0.000   24.9    59   16.4   25.3  10.67 1.1672    116    1    100.0    5 
30/10/14   1:05   14.9   15.0   14.9    98   14.6   5.0    SE   0.42   7.0    SE   14.8   15.2   15.1  1017.0  0.00   0.0   0.012   0.000   24.9    59   16.4   25.3  10.67 1.1674    117    1    100.0    5 
30/10/14   1:10   14.9   14.9   14.9    98   14.6   5.0    SE   0.42   7.0   ESE   14.8   15.2   15.1  1017.0  0.00   0.0   0.012   0.000   24.9    59   16.4   25.3  10.67 1.1674    116    1    100.0    5 
30/10/14   1:15   14.9   14.9   14.9    98   14.6   5.0    SE   0.42   6.0    SE   14.8   15.2   15.1  1017.1  0.00   0.0   0.012   0.000   24.9    59   16.4   25.3  10.67 1.1675    117    1    100.0    5 
30/10/14   1:20   14.9   14.9   14.9    98   14.6   5.0    SE   0.42   7.0   ESE   14.8   15.2   15.1  1017.1  0.00   0.0   0.012   0.000   24.9    59   16.4   25.3  10.67 1.1675    117    1    100.0    5 
30/10/14   1:25   15.0   15.0   14.9    98   14.7   5.0    SE   0.42   8.0   ESE   14.9   15.3   15.2  1017.1  0.00   0.0   0.012   0.000   24.9    59   16.3   25.3  10.68 1.1678    116    1    100.0    5 
30/10/14   1:30   15.1   15.1   15.0    98   14.7   7.0    SE   0.58   9.0   ESE   14.5   15.3   14.8  1016.9  0.00   0.0   0.011   0.000   24.9    59   16.3   25.3  10.68 1.1676    117    1    100.0    5 
30/10/14   1:35   15.1   15.1   15.1    98   14.7   7.0   ESE   0.58   9.0   ESE   14.5   15.3   14.8  1017.0  0.00   0.0   0.011   0.000   24.9    59   16.3   25.3  10.68 1.1676    115    1    100.0    5 
30/10/14   1:40   15.1   15.1   15.1    98   14.8   8.0   ESE   0.67   9.0   ESE   14.2   15.4   14.4  1016.9  0.00   0.0   0.011   0.000   24.9    59   16.3   25.3  10.68 1.1676    117    1    100.0    5 
30/10/14   1:45   15.1   15.1   15.1    98   14.8   8.0   ESE   0.67   9.0   ESE   14.2   15.4   14.4  1016.9  0.00   0.0   0.011   0.000   24.8    59   16.3   25.2  10.68 1.1679    117    1    100.0    5 
30/10/14   1:50   15.2   15.2   15.1    98   14.9   8.0   ESE   0.67  10.0   ESE   14.3   15.4   14.6  1016.8  0.00   0.0   0.011   0.000   24.8    59   16.3   25.2  10.68 1.1678    116    1    100.0    5 
30/10/14   1:55   15.2   15.2   15.1    98   14.9   7.0   ESE   0.58   9.0   ESE   14.7   15.4   14.9  1016.8  0.00   0.0   0.011   0.000   24.8    59   16.3   25.2  10.68 1.1677    117    1    100.0    5 
30/10/14   2:00   15.2   15.2   15.2    98   14.9   7.0    SE   0.58   9.0   ESE   14.7   15.4   14.9  1016.8  0.00   0.0   0.011   0.000   24.8    59   16.3   25.2  10.68 1.1677    116    1    100.0    5 
30/10/14   2:05   15.2   15.2   15.2    98   14.9   7.0    SE   0.58   9.0    SE   14.7   15.5   15.0  1016.7  0.00   0.0   0.011   0.000   24.8    59   16.3   25.2  10.68 1.1676    117    1    100.0    5 
30/10/14   2:10   15.2   15.2   15.2    98   14.9   8.0    SE   0.67   9.0    SE   14.3   15.4   14.6  1016.8  0.00   0.0   0.011   0.000   24.8    59   16.2   25.2  10.69 1.1680    117    1    100.0    5 
30/10/14   2:15   15.2   15.2   15.2    98   14.9   8.0    SE   0.67  10.0    SE   14.3   15.5   14.6  1016.8  0.00   0.0   0.011   0.000   24.8    59   16.2   25.2  10.69 1.1680    116    1    100.0    5 
30/10/14   2:20   15.2   15.2   15.2    98   14.9   9.0    SE   0.75  10.0    SE   13.9   15.5   14.2  1016.7  0.00   0.0   0.011   0.000   24.8    59   16.2   25.2  10.69 1.1679    116    1    100.0    5 
30/10/14   2:25   15.2   15.2   15.2    98   14.9   8.0    SE   0.67  10.0    SE   14.3   15.5   14.6  1016.7  0.00   0.0   0.011   0.000   24.8    59   16.2   25.2  10.69 1.1679    117    1    100.0    5 
30/10/14   2:30   15.2   15.2   15.2    98   14.9   8.0    SE   0.67  10.0   SSE   14.3   15.5   14.6  1016.7  0.00   0.0   0.011   0.000   24.7    59   16.2   25.1  10.69 1.1682    116    1    100.0    5 
30/10/14   2:35   15.2   15.2   15.2    98   14.9   7.0    SE   0.58   9.0    SE   14.7   15.5   15.0  1016.8  0.00   0.0   0.011   0.000   24.7    59   16.2   25.1  10.69 1.1683    117    1    100.0    5 
30/10/14   2:40   15.2   15.2   15.2    98   14.9   7.0   SSE   0.58   8.0   SSE   14.7   15.5   15.0  1016.7  0.00   0.0   0.011   0.000   24.7    59   16.2   25.1  10.69 1.1682    117    1    100.0    5 
30/10/14   2:45   15.2   15.2   15.2    98   14.9   7.0   SSE   0.58   8.0   SSE   14.7   15.5   15.0  1016.7  0.00   0.0   0.011   0.000   24.7    59   16.2   25.1  10.69 1.1682    117    1    100.0    5 
30/10/14   2:50   15.2   15.2   15.2    98   14.9   7.0   SSE   0.58   8.0    SE   14.7   15.5   15.0  1016.7  0.00   0.0   0.011   0.000   24.7    59   16.1   25.1  10.69 1.1684    118    1    100.0    5 
30/10/14   2:55   15.2   15.3   15.2    98   14.9   7.0   SSE   0.58   9.0   SSE   14.7   15.5   15.0  1016.6  0.00   0.0   0.011   0.000   24.7    59   16.1   25.1  10.69 1.1684    116    1    100.0    5 
30/10/14   3:00   15.2   15.2   15.2    98   14.9   7.0   SSE   0.58   9.0   SSE   14.7   15.5   15.0  1016.6  0.00   0.0   0.011   0.000   24.7    59   16.1   25.1  10.69 1.1684    116    1    100.0    5 
30/10/14   3:05   15.3   15.3   15.2    98   15.0   8.0   SSE   0.67   9.0   SSE   14.4   15.6   14.7  1016.6  0.00   0.0   0.011   0.000   24.6    59   16.1   24.9  10.70 1.1687    116    1    100.0    5 
30/10/14   3:10   15.3   15.3   15.3    98   15.0   7.0   SSE   0.58   9.0   SSE   14.8   15.6   15.1  1016.5  0.00   0.0   0.011   0.000   24.6    59   16.1   24.9  10.70 1.1685    116    1    100.0    5 
30/10/14   3:15   15.3   15.3   15.3    98   15.0   8.0   SSE   0.67   9.0   SSE   14.4   15.6   14.7  1016.5  0.00   0.0   0.011   0.000   24.6    59   16.1   24.9  10.70 1.1685    117    1    100.0    5 
30/10/14   3:20   15.3   15.3   15.3    98   15.0   8.0   SSE   0.67  10.0   SSE   14.4   15.6   14.7  1016.4  0.00   0.0   0.010   0.000   24.6    59   16.1   24.9  10.70 1.1684    117    1    100.0    5 
30/10/14   3:25   15.3   15.3   15.3    98   15.0   8.0   SSE   0.67  10.0   SSE   14.4   15.6   14.7  1016.4  0.00   0.0   0.010   0.000   24.6    59   16.0   24.9  10.70 1.1687    116    1    100.0    5 
30/10/14   3:30   15.3   15.3   15.3    98   15.0   8.0   SSE   0.67  10.0   SSE   14.4   15.6   14.7  1016.4  0.00   0.0   0.010   0.000   24.6    59   16.0   24.9  10.70 1.1687    115    1    100.0    5 
30/10/14   3:35   15.4   15.4   15.3    98   15.1   8.0   SSE   0.67  10.0   SSE   14.5   15.7   14.8  1016.4  0.00   0.0   0.010   0.000   24.6    59   16.0   24.9  10.70 1.1687    117    1    100.0    5 
30/10/14   3:40   15.3   15.4   15.3    98   15.0   7.0   SSE   0.58   9.0   SSE   14.8   15.6   15.1  1016.4  0.00   0.0   0.010   0.000   24.6    59   16.0   24.9  10.70 1.1687    117    1    100.0    5 
30/10/14   3:45   15.4   15.4   15.3    98   15.1   7.0   SSE   0.58   9.0   SSE   14.9   15.7   15.2  1016.5  0.00   0.0   0.010   0.000   24.5    59   16.0   24.8  10.71 1.1691    117    1    100.0    5 
30/10/14   3:50   15.3   15.4   15.3    98   15.0   7.0   SSE   0.58   8.0   SSE   14.8   15.6   15.1  1016.4  0.00   0.0   0.010   0.000   24.5    59   16.0   24.8  10.71 1.1690    116    1    100.0    5 
30/10/14   3:55   15.3   15.3   15.3    98   15.0   7.0   SSE   0.58   8.0   SSE   14.8   15.6   15.1  1016.5  0.00   0.0   0.010   0.000   24.5    59   16.0   24.8  10.71 1.1691    117    1    100.0    5 
30/10/14   4:00   15.3   15.3   15.3    98   15.0   6.0   SSE   0.50   7.0   SSE   15.0   15.6   15.3  1016.6  0.00   0.0   0.011   0.000   24.4    59   15.9   24.8  10.71 1.1695    116    1    100.0    5 
30/10/14   4:05   15.2   15.3   15.2    98   14.9   5.0   SSE   0.42   7.0   SSE   15.2   15.5   15.4  1016.5  0.00   0.0   0.011   0.000   24.4    59   15.9   24.8  10.71 1.1694    117    1    100.0    5 
30/10/14   4:10   15.2   15.2   15.2    98   14.9   5.0   SSE   0.42   7.0    SE   15.2   15.5   15.4  1016.6  0.00   0.0   0.011   0.000   24.4    59   15.9   24.8  10.71 1.1696    116    1    100.0    5 
30/10/14   4:15   15.2   15.2   15.2    98   14.9   5.0   SSE   0.42   6.0   SSE   15.2   15.5   15.4  1016.6  0.00   0.0   0.011   0.000   24.4    59   15.9   24.8  10.71 1.1695    117    1    100.0    5 
30/10/14   4:20   15.2   15.3   15.2    98   14.9   5.0   SSE   0.42   6.0   SSE   15.2   15.5   15.4  1016.6  0.00   0.0   0.011   0.000   24.4    59   15.9   24.8  10.71 1.1695    116    1    100.0    5 
30/10/14   4:25   15.3   15.3   15.2    98   15.0   5.0   SSE   0.42   6.0   SSE   15.2   15.6   15.5  1016.7  0.00   0.0   0.011   0.000   24.4    59   15.9   24.8  10.71 1.1696    116    1    100.0    5 
30/10/14   4:30   15.3   15.3   15.3    98   15.0   5.0   SSE   0.42   6.0   SSE   15.2   15.6   15.5  1016.7  0.00   0.0   0.011   0.000   24.4    59   15.9   24.7  10.71 1.1699    117    1    100.0    5 
30/10/14   4:35   15.3   15.3   15.3    98   15.0   5.0   SSE   0.42   6.0   SSE   15.2   15.6   15.5  1016.6  0.00   0.0   0.011   0.000   24.4    59   15.9   24.7  10.71 1.1699    115    1    100.0    5 
30/10/14   4:40   15.3   15.3   15.3    98   15.0   5.0   SSE   0.42   6.0   SSE   15.2   15.6   15.5  1016.6  0.00   0.0   0.011   0.000   24.4    59   15.9   24.7  10.71 1.1699    117    1    100.0    5 
30/10/14   4:45   15.3   15.3   15.3    98   15.0   5.0   SSE   0.42   6.0   SSE   15.3   15.6   15.6  1016.7  0.00   0.0   0.010   0.000   24.4    59   15.9   24.7  10.71 1.1699    116    1    100.0    5 
30/10/14   4:50   15.3   15.3   15.3    98   15.0   5.0   SSE   0.42   6.0   SSE   15.2   15.6   15.5  1016.7  0.20   0.0   0.011   0.000   24.4    59   15.9   24.7  10.71 1.1700    117    1    100.0    5 
30/10/14   4:55   15.3   15.3   15.3    98   15.0   5.0   SSE   0.42   6.0   SSE   15.2   15.6   15.5  1016.9  0.00   0.0   0.011   0.000   24.4    59   15.9   24.7  10.71 1.1701    118    1    100.0    5 
30/10/14   5:00   15.3   15.3   15.3    98   15.0   6.0   SSE   0.50   7.0   SSE   15.1   15.6   15.3  1016.8  0.00   0.0   0.010   0.000   24.4    59   15.9   24.7  10.71 1.1701    116    1    100.0    5 
30/10/14   5:05   15.3   15.3   15.3    98   15.0   6.0   SSE   0.50   7.0   SSE   15.1   15.6   15.3  1016.9  0.00   0.0   0.010   0.000   24.3    59   15.8   24.7  10.72 1.1704    116    1    100.0    5 
30/10/14   5:10   15.3   15.3   15.3    98   15.0   6.0   SSE   0.50   7.0   SSE   15.1   15.6   15.3  1016.8  0.00   0.0   0.010   0.000   24.3    59   15.8   24.7  10.72 1.1704    117    1    100.0    5 
30/10/14   5:15   15.3   15.3   15.3    98   15.0   7.0   SSE   0.58   8.0     S   14.8   15.6   15.1  1016.8  0.00   0.0   0.010   0.000   24.3    59   15.8   24.7  10.72 1.1703    117    1    100.0    5 
30/10/14   5:20   15.3   15.4   15.3    98   15.0   7.0   SSE   0.58   9.0     S   14.8   15.6   15.1  1016.8  0.00   0.0   0.010   0.000   24.3    59   15.8   24.7  10.72 1.1706    117    1    100.0    5 
30/10/14   5:25   15.3   15.4   15.3    98   15.0   7.0   SSE   0.58   9.0   SSE   14.8   15.6   15.1  1016.8  0.00   0.0   0.010   0.000   24.3    59   15.8   24.7  10.72 1.1706    116    1    100.0    5 
30/10/14   5:30   15.4   15.4   15.3    98   15.1   7.0     S   0.58   9.0     S   14.9   15.7   15.2  1016.8  0.00   0.0   0.010   0.000   24.3    59   15.8   24.7  10.72 1.1706    117    1    100.0    5 
30/10/14   5:35   15.4   15.4   15.3    98   15.1   7.0     S   0.58  10.0     S   14.9   15.7   15.2  1016.8  0.00   0.0   0.010   0.000   24.3    59   15.8   24.7  10.72 1.1706    117    1    100.0    5 
30/10/14   5:40   15.4   15.4   15.4    98   15.1   8.0     S   0.67  10.0     S   14.5   15.7   14.8  1016.8  0.00   0.0   0.010   0.000   24.3    59   15.8   24.7  10.72 1.1706    116    1    100.0    5 
30/10/14   5:45   15.4   15.4   15.4    98   15.1   8.0     S   0.67  11.0     S   14.5   15.7   14.8  1016.8  0.00   0.0   0.010   0.000   24.2    59   15.7   24.6  10.73 1.1709    117    1    100.0    5 
30/10/14   5:50   15.4   15.4   15.4    98   15.1   8.0     S   0.67  10.0     S   14.5   15.7   14.8  1016.8  0.00   0.0   0.010   0.000   24.2    59   15.7   24.6  10.73 1.1709    117    1    100.0    5 
30/10/14   5:55   15.4   15.4   15.4    98   15.1   8.0     S   0.67  10.0     S   14.5   15.7   14.8  1016.8  0.00   0.0   0.010   0.000   24.2    59   15.7   24.6  10.73 1.1709    117    1    100.0    5 
30/10/14   6:00   15.4   15.4   15.4    98   15.1   8.0     S   0.67  11.0     S   14.6   15.7   14.9  1016.8  0.00   0.0   0.010   0.000   24.2    59   15.7   24.6  10.73 1.1709    118    1    100.0    5 
30/10/14   6:05   15.4   15.4   15.4    98   15.1   9.0     S   0.75  11.0     S   14.2   15.7   14.4  1016.7  0.00   0.0   0.010   0.000   24.2    59   15.7   24.6  10.73 1.1708    116    1    100.0    5 
30/10/14   6:10   15.4   15.4   15.4    98   15.1   8.0     S   0.67  10.0     S   14.6   15.7   14.9  1016.7  0.00   0.0   0.010   0.000   24.2    59   15.6   24.6  10.73 1.1711    116    1    100.0    5 
30/10/14   6:15   15.4   15.4   15.4    98   15.1   9.0     S   0.75  11.0   SSE   14.2   15.7   14.4  1016.8  0.00   0.0   0.010   0.000   24.2    59   15.6   24.6  10.73 1.1712    117    1    100.0    5 
30/10/14   6:20   15.4   15.4   15.4    98   15.1   9.0     S   0.75  12.0     S   14.2   15.7   14.4  1016.8  0.00   0.0   0.010   0.000   24.2    59   15.6   24.6  10.73 1.1712    116    1    100.0    5 
30/10/14   6:25   15.4   15.4   15.4    98   15.1   9.0     S   0.75  12.0     S   14.2   15.7   14.4  1016.8  0.00   0.0   0.010   0.000   24.1    59   15.6   24.5  10.73 1.1715    117    1    100.0    5 
30/10/14   6:30   15.4   15.5   15.4    98   15.1   8.0     S   0.67  10.0     S   14.6   15.7   14.9  1016.9  0.00   0.0   0.010   0.000   24.1    59   15.6   24.5  10.73 1.1716    117    1    100.0    5 
30/10/14   6:35   15.4   15.4   15.4    98   15.1   8.0     S   0.67   9.0     S   14.6   15.7   14.9  1016.8  0.00   0.0   0.010   0.000   24.1    59   15.6   24.5  10.73 1.1715    117    1    100.0    5 
30/10/14   6:40   15.4   15.4   15.4    98   15.1   9.0     S   0.75  10.0     S   14.2   15.7   14.4  1016.8  0.00   0.0   0.010   0.000   24.1    59   15.6   24.5  10.73 1.1715    117    1    100.0    5 
30/10/14   6:45   15.4   15.4   15.4    98   15.1   9.0     S   0.75  11.0     S   14.2   15.7   14.4  1016.8  0.00   0.0   0.010   0.000   24.1    59   15.5   24.5  10.74 1.1718    117    1    100.0    5 
30/10/14   6:50   15.4   15.4   15.4    98   15.1   8.0     S   0.67  11.0     S   14.5   15.7   14.8  1016.8  0.00   0.0   0.010   0.000   24.1    59   15.5   24.5  10.74 1.1718    116    1    100.0    5 
30/10/14   6:55   15.4   15.4   15.4    98   15.1   8.0     S   0.67  10.0     S   14.5   15.7   14.8  1016.9  0.00   0.0   0.010   0.000   24.1    59   15.5   24.5  10.74 1.1719    116    1    100.0    5 
30/10/14   7:00   15.4   15.4   15.4    98   15.1   8.0     S   0.67  10.0     S   14.5   15.7   14.8  1016.9  0.00   0.0   0.010   0.000   24.1    59   15.5   24.5  10.74 1.1719    117    1    100.0    5 
30/10/14   7:05   15.4   15.4   15.4    97   14.9   8.0     S   0.67  10.0     S   14.5   15.7   14.8  1017.0  0.00   0.0   0.010   0.000   24.1    59   15.5   24.5  10.74 1.1720    117    1    100.0    5 
30/10/14   7:10   15.4   15.4   15.4    97   14.9   8.0     S   0.67  11.0     S   14.5   15.7   14.8  1017.0  0.00   0.0   0.010   0.000   24.1    59   15.5   24.5  10.74 1.1721    116    1    100.0    5 
30/10/14   7:15   15.4   15.4   15.4    97   15.0   9.0     S   0.75  10.0     S   14.2   15.7   14.4  1017.1  0.00   0.0   0.010   0.000   24.1    59   15.5   24.5  10.74 1.1721    116    1    100.0    5 
30/10/14   7:20   15.4   15.4   15.4    97   15.0   9.0     S   0.75  11.0     S   14.2   15.7   14.4  1017.1  0.00   0.0   0.010   0.000   24.1    59   15.5   24.5  10.74 1.1721    117    1    100.0    5 
30/10/14   7:25   15.4   15.4   15.4    97   14.9  10.0     S   0.83  11.0     S   13.7   15.7   13.9  1017.0  0.00   0.0   0.010   0.000   24.1    59   15.5   24.5  10.74 1.1721    117    1    100.0    5 
30/10/14   7:30   15.4   15.4   15.4    97   14.9  10.0     S   0.83  12.0     S   13.7   15.7   13.9  1017.1  0.00   0.0   0.010   0.000   24.1    59   15.5   24.5  10.74 1.1721    116    1    100.0    5 
30/10/14   7:35   15.4   15.4   15.4    97   15.0  10.0     S   0.83  12.0     S   13.8   15.7   14.1  1017.1  0.00   0.0   0.010   0.000   24.1    59   15.5   24.5  10.74 1.1721    116    1    100.0    5 
30/10/14   7:40   15.4   15.4   15.4    97   15.0  10.0     S   0.83  12.0     S   13.8   15.7   14.1  1017.2  0.00   0.0   0.010   0.000   24.0    59   15.5   24.4  10.74 1.1725    116    1    100.0    5 
30/10/14   7:45   15.4   15.4   15.4    97   14.9   9.0     S   0.75  11.0     S   14.1   15.7   14.3  1017.3  0.00   0.0   0.010   0.000   24.1    59   15.5   24.5  10.74 1.1723    117    1    100.0    5 
30/10/14   7:50   15.4   15.4   15.4    97   15.0   8.0   SSW   0.67  11.0     S   14.6   15.7   14.9  1017.4  0.00   0.0   0.010   0.000   24.0    59   15.5   24.4  10.74 1.1727    117    1    100.0    5 
30/10/14   7:55   15.4   15.4   15.4    97   15.0   8.0   SSW   0.67  10.0     S   14.6   15.7   14.9  1017.5  0.00   0.0   0.010   0.000   24.0    59   15.5   24.4  10.74 1.1729    117    1    100.0    5 
30/10/14   8:00   15.4   15.4   15.4    97   15.0   8.0   SSW   0.67  10.0     S   14.6   15.7   14.9  1017.6  0.00   0.0   0.010   0.000   24.0    59   15.5   24.4  10.74 1.1730    116    1    100.0    5 
30/10/14   8:05   15.4   15.4   15.4    97   15.0   7.0   SSW   0.58  10.0     S   15.0   15.7   15.3  1017.7  0.00   0.0   0.010   0.000   24.0    59   15.5   24.4  10.74 1.1731    117    1    100.0    5 
30/10/14   8:10   15.4   15.4   15.4    97   15.0   7.0   SSW   0.58   9.0   SSW   15.0   15.7   15.3  1017.7  0.00   0.0   0.010   0.000   24.0    59   15.5   24.4  10.74 1.1732    117    1    100.0    5 
30/10/14   8:15   15.4   15.4   15.4    97   15.0   7.0   SSW   0.58   9.0   SSW   15.0   15.7   15.3  1017.8  0.00   0.0   0.010   0.000   24.0    59   15.5   24.4  10.74 1.1732    116    1    100.0    5 
30/10/14   8:20   15.4   15.4   15.4    97   15.0   7.0   SSW   0.58   8.0   SSW   15.0   15.7   15.3  1017.9  0.00   0.0   0.010   0.000   24.1    59   15.5   24.5  10.74 1.1731    117    1    100.0    5 
30/10/14   8:25   15.4   15.4   15.4    97   15.0   7.0   SSW   0.58   8.0    SW   15.0   15.7   15.3  1017.8  0.00   0.0   0.010   0.000   24.1    59   15.5   24.5  10.74 1.1730    117    1    100.0    5 
30/10/14   8:30   15.4   15.4   15.4    97   15.0   7.0   SSW   0.58   9.0     S   15.0   15.7   15.3  1017.7  0.00   0.0   0.010   0.000   24.1    60   15.9   24.6  10.93 1.1723    114    1    100.0    5 
30/10/14   8:35   15.4   15.4   15.4    97   15.0   7.0   SSW   0.58   9.0   SSW   15.0   15.7   15.3  1017.8  0.00   0.0   0.010   0.000   24.1    60   15.9   24.6  10.93 1.1723    117    1    100.0    5 
30/10/14   8:40   15.6   15.6   15.4    97   15.1   8.0   SSW   0.67  10.0   SSW   14.7   15.8   15.0  1017.8  0.00   0.0   0.010   0.000   24.2    60   15.9   24.6  10.93 1.1720    117    1    100.0    5 
30/10/14   8:45   15.6   15.6   15.6    97   15.1   8.0   SSW   0.67  11.0    SW   14.8   15.9   15.1  1017.7  0.00   0.0   0.009   0.000   24.2    59   15.7   24.6  10.73 1.1720    117    1    100.0    5 
30/10/14   8:50   15.7   15.7   15.6    97   15.2   8.0   SSW   0.67  11.0     S   14.9   16.0   15.2  1017.7  0.00   0.0   0.009   0.000   24.2    59   15.7   24.6  10.73 1.1720    117    1    100.0    5 
30/10/14   8:55   15.8   15.8   15.7    97   15.3   9.0   SSW   0.75  11.0    SW   14.6   16.1   14.8  1017.7  0.00   0.0   0.009   0.000   24.3    59   15.8   24.7  10.72 1.1717    117    1    100.0    5 
30/10/14   9:00   15.8   15.8   15.8    97   15.4   8.0   SSW   0.67  11.0   SSW   15.1   16.1   15.3  1017.7  0.00   0.0   0.009   0.000   24.3    59   15.8   24.7  10.72 1.1715    116    1    100.0    5 
30/10/14   9:05   15.9   15.9   15.8    97   15.4   8.0   SSW   0.67  10.0   SSW   15.1   16.2   15.4  1017.8  0.00   0.0   0.008   0.000   24.3    59   15.8   24.7  10.72 1.1715    116    1    100.0    5 
30/10/14   9:10   15.9   15.9   15.9    97   15.4   7.0   SSW   0.58  11.0    SW   15.5   16.2   15.8  1017.8  0.00   0.0   0.008   0.000   24.3    59   15.8   24.7  10.72 1.1715    117    1    100.0    5 
30/10/14   9:15   15.9   15.9   15.9    97   15.5   7.0   SSW   0.58   9.0     S   15.6   16.3   15.9  1017.8  0.00   0.0   0.008   0.000   24.4    59   15.9   24.7  10.71 1.1712    117    1    100.0    5 
30/10/14   9:20   16.0   16.0   15.9    97   15.5   7.0   SSW   0.58  10.0    SW   15.7   16.3   16.0  1017.9  0.00   0.0   0.008   0.000   24.4    59   15.9   24.7  10.71 1.1714    116    1    100.0    5 
30/10/14   9:25   16.1   16.1   16.0    96   15.4   7.0   SSW   0.58   9.0    SW   15.7   16.3   16.0  1017.9  0.00   0.0   0.008   0.000   24.4    59   15.9   24.7  10.71 1.1713    116    1    100.0    5 
30/10/14   9:30   16.1   16.1   16.0    96   15.4   8.0   SSW   0.67  10.0    SW   15.3   16.3   15.6  1017.9  0.00   0.0   0.008   0.000   24.4    59   15.9   24.8  10.71 1.1710    117    1    100.0    5 
30/10/14   9:35   16.1   16.1   16.0    96   15.5   7.0   SSW   0.58   9.0   SSW   15.8   16.4   16.1  1017.9  0.00   0.0   0.008   0.000   24.4    59   15.9   24.8  10.71 1.1710    117    1    100.0    5 
30/10/14   9:40   16.2   16.2   16.1    96   15.5   8.0   SSW   0.67  10.0     S   15.4   16.5   15.8  1017.8  0.00   0.0   0.008   0.000   24.5    59   16.0   24.8  10.71 1.1706    115    1    100.0    5 
30/10/14   9:45   16.2   16.2   16.2    96   15.5   8.0   SSW   0.67  10.0     S   15.4   16.5   15.8  1017.8  0.00   0.0   0.008   0.000   24.5    59   16.0   24.8  10.71 1.1706    117    1    100.0    5 
30/10/14   9:50   16.3   16.3   16.2    96   15.6   8.0     S   0.67   9.0     S   15.6   16.6   15.9  1017.7  0.00   0.0   0.007   0.000   24.6    59   16.0   24.9  10.70 1.1703    116    1    100.0    5 
30/10/14   9:55   16.3   16.3   16.3    96   15.6   6.0   SSW   0.50   9.0     S   16.2   16.6   16.6  1017.9  0.00   0.0   0.007   0.000   24.6    59   16.1   24.9  10.70 1.1702    117    1    100.0    5 
30/10/14  10:00   16.4   16.4   16.3    96   15.7   6.0   SSW   0.50   7.0   SSW   16.3   16.7   16.7  1018.0  0.00   0.0   0.007   0.000   24.7    60   16.4   25.1  10.89 1.1696    117    1    100.0    5 
30/10/14  10:05   16.4   16.4   16.4    96   15.7   6.0   SSW   0.50   7.0   SSW   16.3   16.7   16.7  1017.9  0.00   0.0   0.007   0.000   24.7    60   16.4   25.2  10.89 1.1693    114    1    100.0    5 
30/10/14  10:10   16.4   16.4   16.4    96   15.8   7.0   SSW   0.58   8.0   SSW   16.2   16.8   16.6  1017.9  0.00   0.0   0.007   0.000   24.8    60   16.5   25.2  10.89 1.1690    117    1    100.0    5 
30/10/14  10:15   16.4   16.5   16.4    96   15.8   7.0     S   0.58   9.0     S   16.2   16.8   16.6  1017.9  0.00   0.0   0.007   0.000   24.8    60   16.5   25.2  10.89 1.1690    117    1    100.0    5 
30/10/14  10:20   16.4   16.4   16.4    95   15.6   8.0     S   0.67  10.0     S   15.8   16.8   16.1  1018.0  0.00   0.0   0.007   0.000   24.9    60   16.6   25.3  10.88 1.1684    117    1    100.0    5 
30/10/14  10:25   16.5   16.5   16.4    96   15.9   8.0     S   0.67   9.0     S   15.8   16.9   16.2  1018.0  0.00   0.0   0.006   0.000   24.9    60   16.6   25.4  10.87 1.1682    117    1    100.0    5 
30/10/14  10:30   16.6   16.6   16.5    96   15.9   7.0   SSW   0.58   8.0     S   16.3   16.9   16.7  1018.0  0.00   0.0   0.006   0.000   25.0    60   16.7   25.4  10.87 1.1678    117    1    100.0    5 
30/10/14  10:35   16.6   16.6   16.6    96   16.0   7.0   SSW   0.58   8.0     S   16.4   17.0   16.8  1018.0  0.00   0.0   0.006   0.000   25.1    60   16.7   25.5  10.87 1.1676    116    1    100.0    5 
30/10/14  10:40   16.7   16.7   16.6    95   15.9   7.0   SSW   0.58   8.0     S   16.6   17.1   16.9  1018.0  0.00   0.0   0.006   0.000   25.1    60   16.8   25.6  10.86 1.1673    116    1    100.0    5 
30/10/14  10:45   16.7   16.8   16.7    95   15.9   7.0   SSW   0.58   8.0     S   16.6   17.1   16.9  1018.0  0.00   0.0   0.006   0.000   25.2    60   16.9   25.6  10.86 1.1671    116    1    100.0    5 
30/10/14  10:50   16.7   16.8   16.7    95   15.9   7.0   SSW   0.58   9.0     S   16.6   17.1   16.9  1018.1  0.00   0.0   0.006   0.000   25.2    60   16.9   25.7  10.85 1.1668    117    1    100.0    5 
30/10/14  10:55   16.7   16.7   16.7    95   15.9   7.0   SSW   0.58   9.0    SW   16.5   17.1   16.9  1018.1  0.20   0.0   0.006   0.000   25.3    60   17.0   25.8  10.85 1.1666    117    1    100.0    5 
30/10/14  11:00   16.7   16.7   16.7    95   15.9   7.0   SSW   0.58   8.0     S   16.6   17.1   16.9  1018.1  0.00   0.0   0.006   0.000   25.3    60   17.0   25.8  10.85 1.1663    116    1    100.0    5 
30/10/14  11:05   16.8   16.8   16.7    95   16.0   7.0   SSW   0.58   8.0    SW   16.6   17.2   17.0  1018.1  0.00   0.0   0.005   0.000   25.3    60   17.0   25.8  10.85 1.1663    117    1    100.0    5 
30/10/14  11:10   16.8   16.8   16.7    95   16.0   6.0   SSW   0.50   8.0    SW   16.8   17.2   17.2  1018.1  0.00   0.0   0.005   0.000   25.4    60   17.1   25.9  10.84 1.1660    117    1    100.0    5 
30/10/14  11:15   16.8   16.8   16.8    95   16.0   6.0   SSW   0.50   7.0   SSW   16.8   17.2   17.2  1018.2  0.00   0.0   0.005   0.000   25.4    60   17.1   25.9  10.84 1.1661    118    1    100.0    5 
30/10/14  11:20   16.7   16.8   16.7    95   15.9   6.0   SSW   0.50   8.0    SW   16.7   17.1   17.1  1018.2  0.00   0.0   0.006   0.000   25.4    60   17.1   25.9  10.84 1.1658    115    1    100.0    5 
30/10/14  11:25   16.8   16.8   16.7    94   15.8   7.0    SW   0.58   8.0    SW   16.6   17.2   17.0  1018.2  0.00   0.0   0.005   0.000   25.4    60   17.1   25.9  10.84 1.1658    117    1    100.0    5 
30/10/14  11:30   16.7   16.8   16.7    94   15.8   7.0    SW   0.58   8.0    SW   16.6   17.1   16.9  1018.3  0.00   0.0   0.006   0.000   25.4    60   17.1   25.9  10.84 1.1659    117    1    100.0    5 
30/10/14  11:35   16.8   16.8   16.7    94   15.8   6.0    SW   0.50   8.0    SW   16.8   17.2   17.2  1018.3  0.00   0.0   0.005   0.000   25.5    60   17.2   26.0  10.83 1.1656    117    1    100.0    5 
30/10/14  11:40   16.9   16.9   16.8    94   15.9   6.0   SSW   0.50   7.0   SSW   16.9   17.3   17.3  1018.2  0.00   0.0   0.005   0.000   25.4    58   16.6   25.8  10.44 1.1666    117    1    100.0    5 
30/10/14  11:45   16.9   16.9   16.9    94   16.0   6.0   SSW   0.50   8.0     S   16.9   17.3   17.3  1018.1  0.00   0.0   0.005   0.000   25.2    58   16.4   25.6  10.45 1.1676    117    1    100.0    5 
30/10/14  11:50   16.9   16.9   16.9    94   16.0   6.0   SSW   0.50   8.0    SW   16.9   17.3   17.3  1018.2  0.00   0.0   0.005   0.000   25.1    58   16.2   25.4  10.47 1.1685    117    1    100.0    5 
30/10/14  11:55   16.9   17.0   16.9    94   16.0   6.0   SSW   0.50   8.0    SW   16.9   17.3   17.3  1018.1  0.00   0.0   0.005   0.000   24.9    58   16.1   25.3  10.47 1.1691    117    1    100.0    5 
30/10/14  12:00   16.9   16.9   16.9    93   15.8   6.0   SSW   0.50   7.0   SSW   16.9   17.3   17.3  1018.2  0.00   0.0   0.005   0.000   24.8    59   16.3   25.2  10.68 1.1693    116    1    100.0    5 
30/10/14  12:05   16.9   16.9   16.9    93   15.7   5.0    SW   0.42   7.0   SSW   16.9   17.3   17.3  1018.2  0.00   0.0   0.005   0.000   24.7    59   16.2   25.1  10.69 1.1699    116    1    100.0    5 
30/10/14  12:10   17.0   17.1   16.9    94   16.0   4.0   SSW   0.33   6.0   SSW   17.0   17.4   17.4  1018.2  0.00   0.0   0.005   0.000   24.7    59   16.1   25.1  10.69 1.1702    117    1    100.0    5 
30/10/14  12:15   17.1   17.1   17.0    94   16.1   4.0   SSW   0.33   6.0   SSW   17.1   17.6   17.6  1018.2  0.00   0.0   0.004   0.000   24.8    61   16.7   25.3  11.02 1.1689    116    1    100.0    5 
30/10/14  12:20   17.1   17.2   17.1    93   16.0   4.0   SSW   0.33   6.0   SSW   17.1   17.5   17.5  1018.2  0.00   0.0   0.004   0.000   25.9    57   16.8   26.4  10.20 1.1643    118    1    100.0    5 
30/10/14  12:25   17.2   17.2   17.1    93   16.0   4.0   SSW   0.33   6.0   SSW   17.2   17.6   17.6  1018.2  0.00   0.0   0.004   0.000   26.8    56   17.3   27.3  10.05 1.1601    116    1    100.0    5 
30/10/14  12:30   17.3   17.3   17.2    93   16.1   4.0   SSW   0.33   6.0   SSW   17.3   17.7   17.7  1018.1  0.20   0.0   0.004   0.000   27.6    56   18.0   28.4  10.05 1.1559    117    1    100.0    5 
30/10/14  12:35   17.4   17.4   17.3    93   16.2   4.0   SSW   0.33   6.0   SSW   17.4   17.8   17.8  1018.1  0.00   0.0   0.003   0.000   28.2    54   18.0   29.1   9.75 1.1538    115    1    100.0    5 
30/10/14  12:40   17.4   17.4   17.4    93   16.2   4.0   SSW   0.33   6.0   SSW   17.4   17.8   17.8  1018.1  0.00   0.0   0.003   0.000   28.2    52   17.4   28.9   9.40 1.1547    116    1    100.0    5 
30/10/14  12:45   17.3   17.4   17.3    92   16.0   5.0    SW   0.42   6.0    SW   17.3   17.8   17.8  1018.1  0.00   0.0   0.003   0.000   27.6    52   16.8   27.9   9.42 1.1579    117    1    100.0    5 
30/10/14  12:50   17.3   17.4   17.3    92   16.0   3.0    SW   0.25   5.0    SW   17.3   17.7   17.7  1018.0  0.00   0.0   0.004   0.000   26.9    54   16.8   27.3   9.75 1.1604    117    1    100.0    5 
30/10/14  12:55   17.5   17.5   17.3    93   16.4   3.0    SW   0.25   4.0    SW   17.5   17.9   17.9  1018.0  0.00   0.0   0.003   0.000   27.3    55   17.4   27.8   9.85 1.1579    116    1    100.0    5 
30/10/14  13:00   17.7   17.7   17.6    92   16.4   3.0    SW   0.25   4.0    SW   17.7   18.2   18.2  1017.9  0.00   0.0   0.002   0.000   27.9    54   17.7   28.6   9.75 1.1551    117    1    100.0    5 
30/10/14  13:05   17.7   17.7   17.7    92   16.4   2.0   SSW   0.17   4.0   SSW   17.7   18.2   18.2  1017.9  0.00   0.0   0.002   0.000   28.4    54   18.2   29.5   9.75 1.1522    117    1    100.0    5 
30/10/14  13:10   17.7   17.7   17.7    92   16.4   2.0   SSW   0.17   4.0   SSW   17.7   18.2   18.2  1017.9  0.00   0.0   0.002   0.000   28.9    53   18.3   30.2   9.57 1.1503    117    1    100.0    5 
30/10/14  13:15   17.6   17.7   17.6    91   16.1   2.0   SSW   0.17   4.0   SSW   17.6   18.0   18.0  1017.9  0.00   0.0   0.003   0.000   29.3    52   18.4   30.5   9.36 1.1488    116    1    100.0    5 
30/10/14  13:20   17.6   17.6   17.5    91   16.1   3.0   SSW   0.25   4.0   SSW   17.6   18.0   18.0  1017.9  0.00   0.0   0.003   0.000   29.5    50   18.0   30.5   9.05 1.1485    114    1    100.0    5 
30/10/14  13:25   17.7   17.7   17.6    92   16.4   2.0   SSW   0.17   3.0   SSW   17.7   18.2   18.2  1017.8  0.00   0.0   0.002   0.000   28.8    49   17.1   29.7   8.87 1.1524    116    1    100.0    5 
30/10/14  13:30   17.9   17.9   17.7    91   16.4   3.0   SSW   0.25   4.0   SSW   17.9   18.4   18.4  1017.8  0.00   0.0   0.002   0.000   28.1    51   17.0   28.7   9.30 1.1555    117    1    100.0    5 
30/10/14  13:35   17.7   17.9   17.7    90   16.1   2.0   SSW   0.17   4.0   SSW   17.7   18.2   18.2  1017.8  0.00   0.0   0.002   0.000   27.4    52   16.7   27.7   9.42 1.1584    114    1    100.0    5 
30/10/14  13:40   17.7   17.7   17.7    90   16.0   2.0   SSW   0.17   3.0   SSW   17.7   18.1   18.1  1017.8  0.00   0.0   0.002   0.000   26.9    53   16.5   27.2   9.64 1.1606    116    1    100.0    5 
30/10/14  13:45   17.7   17.7   17.7    90   16.0   2.0   SSW   0.17   3.0   SSW   17.7   18.1   18.1  1018.0  0.00   0.0   0.002   0.000   26.6    54   16.5   26.9   9.75 1.1621    116    1    100.0    5 
30/10/14  13:50   17.7   17.7   17.7    90   16.1   2.0   SSW   0.17   3.0   SSW   17.7   18.2   18.2  1017.9  0.00   0.0   0.002   0.000   26.3    55   16.6   26.7   9.87 1.1628    116    1    100.0    5 
30/10/14  13:55   17.9   17.9   17.7    91   16.4   1.0   SSW   0.08   3.0   SSW   17.9   18.4   18.4  1017.9  0.20   0.0   0.002   0.000   26.2    55   16.4   26.5   9.89 1.1636    117    1    100.0    5 
30/10/14  14:00   18.2   18.2   17.9    91   16.7   1.0   SSW   0.08   3.0   SSW   18.2   18.8   18.8  1017.8  0.00   0.0   0.000   0.000   26.1    56   16.6   26.4  10.09 1.1637    117    1    100.0    5 
30/10/14  14:05   18.9   18.9   18.2    92   17.6   1.0   SSW   0.08   3.0   SSW   18.9   19.7   19.7  1017.6  0.00   0.0   0.000   0.002   25.9    56   16.5   26.3  10.10 1.1641    117    1    100.0    5 
30/10/14  14:10   19.6   19.6   19.0    90   17.9   1.0   SSW   0.08   2.0   SSW   19.6   20.4   20.4  1017.7  0.00   0.0   0.000   0.004   25.9    57   16.7   26.3  10.21 1.1641    116    1    100.0    5 
30/10/14  14:15   19.8   19.8   19.6    88   17.8   0.0   SSW   0.00   2.0   SSW   19.8   20.7   20.7  1017.6  0.00   0.0   0.000   0.005   25.9    57   16.7   26.3  10.21 1.1640    115    1    100.0    5 
30/10/14  14:20   20.3   20.3   19.8    88   18.2   1.0   SSW   0.08   2.0   SSW   20.3   21.3   21.3  1017.7  0.00   0.0   0.000   0.007   25.8    57   16.7   26.2  10.21 1.1644    116    1    100.0    5 
30/10/14  14:25   20.8   20.8   20.3    87   18.5   2.0   SSW   0.17   4.0   SSW   20.8   21.8   21.8  1017.7  0.00   0.0   0.000   0.008   25.8    58   16.9   26.3  10.41 1.1640    118    1    100.0    5 
30/10/14  14:30   21.2   21.2   20.8    85   18.6   2.0   SSW   0.17   3.0   SSW   21.2   22.1   22.1  1017.6  0.00   0.0   0.000   0.010   25.8    58   16.9   26.3  10.41 1.1639    117    1    100.0    5 
30/10/14  14:35   21.6   21.6   21.2    83   18.5   3.0   SSW   0.25   4.0   SSW   21.6   22.4   22.4  1017.6  0.00   0.0   0.000   0.011   25.8    58   16.9   26.3  10.41 1.1639    117    1    100.0    5 
30/10/14  14:40   21.8   21.8   21.6    82   18.6   3.0   SSW   0.25   4.0   SSW   21.8   22.7   22.7  1017.6  0.00   0.0   0.000   0.012   25.8    58   16.9   26.3  10.41 1.1638    117    1    100.0    5 
30/10/14  14:45   21.9   22.0   21.8    79   18.1   3.0   SSW   0.25   4.0   SSW   21.9   22.7   22.7  1017.6  0.00   0.0   0.000   0.013   25.8    58   16.9   26.3  10.41 1.1639    117    1    100.0    5 
30/10/14  14:50   22.1   22.1   21.9    78   18.0   3.0   SSW   0.25   5.0   SSW   22.1   22.7   22.7  1017.6  0.00   0.0   0.000   0.013   25.9    58   17.0   26.3  10.41 1.1636    117    1    100.0    5 
30/10/14  14:55   22.1   22.1   22.1    77   17.9   3.0   SSW   0.25   5.0   SSW   22.1   22.7   22.7  1017.6  0.00   0.0   0.000   0.013   25.9    58   17.0   26.3  10.41 1.1636    117    1    100.0    5 
30/10/14  15:00   22.1   22.1   22.1    76   17.6   3.0   SSW   0.25   4.0   SSW   22.1   22.6   22.6  1017.6  0.20   0.0   0.000   0.013   25.9    59   17.3   26.4  10.61 1.1632    116    1    100.0    5 
30/10/14  15:05   21.7   22.1   21.7    74   16.9   2.0     S   0.17   3.0   SSW   21.7   22.1   22.1  1017.7  0.00   0.0   0.000   0.012   25.9    59   17.3   26.4  10.60 1.1630    116    1    100.0    5 
30/10/14  15:10   21.3   21.7   21.3    75   16.7   2.0     S   0.17   4.0     S   21.3   21.7   21.7  1017.6  0.00   0.0   0.000   0.010   26.0    59   17.4   26.6  10.60 1.1626    116    1    100.0    5 
30/10/14  15:15   21.2   21.3   21.2    76   16.8   2.0     S   0.17   4.0     S   21.2   21.6   21.6  1017.6  0.00   0.0   0.000   0.010   26.0    59   17.4   26.6  10.60 1.1626    116    1    100.0    5 
30/10/14  15:20   21.1   21.2   21.1    76   16.7   3.0     S   0.25   4.0     S   21.1   21.4   21.4  1017.6  0.00   0.0   0.000   0.009   26.7    63   19.1   27.7  11.35 1.1572    117    1    100.0    5 
30/10/14  15:25   20.8   21.1   20.8    76   16.4   3.0   SSE   0.25   5.0   SSE   20.8   21.3   21.3  1017.5  0.00   0.0   0.000   0.008   27.7    62   19.7   29.1  11.11 1.1524    117    1    100.0    5 
30/10/14  15:30   20.6   20.8   20.6    77   16.4   3.0   SSE   0.25   4.0   SSE   20.6   21.2   21.2  1017.6  0.00   0.0   0.000   0.008   28.5    61   20.2   30.3  10.95 1.1484    117    1    100.0    5 
30/10/14  15:35   20.1   20.6   20.1    77   16.0   3.0   SSE   0.25   4.0   SSE   20.1   20.7   20.7  1017.7  0.00   0.0   0.000   0.006   29.2    60   20.6   31.4  10.75 1.1454    117    1    100.0    5 
30/10/14  15:40   19.9   20.1   19.9    78   16.0   3.0   SSE   0.25   4.0   SSE   19.9   20.6   20.6  1017.6  0.00   0.0   0.000   0.006   29.7    58   20.6   32.1  10.34 1.1433    117    1    100.0    5 
30/10/14  15:45   19.8   19.9   19.8    78   15.9   3.0   SSE   0.25   4.0   SSE   19.8   20.4   20.4  1017.7  0.00   0.0   0.000   0.005   30.2    55   20.1   32.4   9.82 1.1424    117    1    100.0    5 
30/10/14  15:50   19.8   19.8   19.8    79   16.0   3.0   SSE   0.25   4.0   SSE   19.8   20.4   20.4  1017.6  0.00   0.0   0.000   0.005   30.5    54   20.1   32.9   9.71 1.1411    117    1    100.0    5 
30/10/14  15:55   19.8   19.8   19.7    79   16.0   3.0    SE   0.25   5.0   SSE   19.8   20.4   20.4  1017.6  0.00   0.0   0.000   0.005   30.8    53   20.1   33.1   9.50 1.1401    117    1    100.0    5 
30/10/14  16:00   19.7   19.7   19.7    80   16.1   3.0    SE   0.25   4.0    SE   19.7   20.3   20.3  1017.6  0.00   0.0   0.000   0.005   30.9    53   20.2   33.3   9.50 1.1392    117    1    100.0    5 
30/10/14  16:05   19.5   19.7   19.5    79   15.8   3.0    SE   0.25   4.0    SE   19.5   20.1   20.1  1017.7  0.00   0.0   0.000   0.004   30.8    50   19.2   32.7   9.05 1.1414    117    1    100.0    5 
30/10/14  16:10   19.3   19.4   19.3    80   15.7   3.0    SE   0.25   4.0    SE   19.3   19.8   19.8  1017.7  0.00   0.0   0.000   0.003   30.1    50   18.5   31.3   9.05 1.1455    117    1    100.0    5 
30/10/14  16:15   19.0   19.3   19.0    80   15.5   3.0    SE   0.25   4.0    SE   19.0   19.5   19.5  1017.7  0.00   0.0   0.000   0.002   29.2    52   18.4   30.4   9.36 1.1488    115    1    100.0    5 
30/10/14  16:20   18.7   19.0   18.7    81   15.4   3.0    SE   0.25   4.0    SE   18.7   19.2   19.2  1017.7  0.00   0.0   0.000   0.001   28.6    53   18.1   29.7   9.58 1.1516    116    1    100.0    5 
30/10/14  16:25   18.5   18.7   18.5    81   15.2   3.0   ESE   0.25   4.0    SE   18.5   18.9   18.9  1017.7  0.00   0.0   0.000   0.001   28.1    54   17.9   29.0   9.75 1.1537    117    1    100.0    5 
30/10/14  16:30   18.3   18.5   18.3    82   15.2   3.0   ESE   0.25   4.0   ESE   18.3   18.7   18.7  1017.7  0.00   0.0   0.000   0.000   27.8    55   17.9   28.6   9.85 1.1550    118    1    100.0    5 
30/10/14  16:35   18.1   18.3   18.1    82   14.9   3.0   ESE   0.25   4.0   ESE   18.1   18.4   18.4  1017.8  0.00   0.0   0.001   0.000   27.5    56   17.9   28.2  10.05 1.1562    116    1    100.0    5 
30/10/14  16:40   17.9   18.1   17.9    83   15.0   3.0   ESE   0.25   4.0   ESE   17.9   18.2   18.2  1017.9  0.00   0.0   0.002   0.000   27.3    56   17.7   27.9  10.05 1.1574    115    1    100.0    5 
30/10/14  16:45   17.7   17.9   17.7    83   14.8   3.0   ESE   0.25   5.0     E   17.7   18.0   18.0  1017.9  0.00   0.0   0.002   0.000   27.1    57   17.9   27.8  10.17 1.1579    117    1    100.0    5 
30/10/14  16:50   17.5   17.7   17.5    84   14.8   3.0   ESE   0.25   6.0     E   17.5   17.8   17.8  1017.9  0.00   0.0   0.003   0.000   27.0    57   17.8   27.6  10.16 1.1585    116    1    100.0    5 
30/10/14  16:55   17.3   17.5   17.3    85   14.8   3.0   ESE   0.25   5.0     E   17.3   17.6   17.6  1018.0  0.00   0.0   0.003   0.000   26.9    57   17.7   27.6  10.16 1.1588    117    1    100.0    5 
30/10/14  17:00   17.2   17.3   17.2    85   14.7   3.0     E   0.25   5.0     E   17.2   17.5   17.5  1018.0  0.00   0.0   0.004   0.000   26.8    57   17.6   27.4  10.16 1.1595    116    1    100.0    5 
30/10/14  17:05   17.1   17.2   17.1    86   14.7   3.0     E   0.25   5.0     E   17.1   17.3   17.3  1018.1  0.00   0.0   0.004   0.000   26.8    58   17.8   27.4  10.35 1.1595    117    1    100.0    5 
30/10/14  17:10   16.9   17.1   16.9    86   14.6   3.0   ESE   0.25   5.0     E   16.9   17.2   17.2  1018.2  0.00   0.0   0.005   0.000   26.7    58   17.8   27.3  10.35 1.1598    117    1    100.0    5 
30/10/14  17:15   16.8   16.9   16.8    87   14.7   3.0     E   0.25   6.0     E   16.8   17.1   17.1  1018.2  0.00   0.0   0.005   0.000   26.7    58   17.7   27.3  10.35 1.1602    116    1    100.0    5 
30/10/14  17:20   16.8   16.8   16.8    87   14.6   3.0     E   0.25   5.0     E   16.8   17.0   17.0  1018.2  0.00   0.0   0.005   0.000   26.6    58   17.7   27.2  10.35 1.1604    116    1    100.0    5 
30/10/14  17:25   16.7   16.7   16.7    87   14.5   3.0     E   0.25   5.0     E   16.7   16.9   16.9  1018.2  0.00   0.0   0.006   0.000   26.6    58   17.7   27.2  10.35 1.1605    114    1    100.0    5 
30/10/14  17:30   16.6   16.7   16.6    88   14.6   3.0     E   0.25   6.0     E   16.6   16.8   16.8  1018.2  0.00   0.0   0.006   0.000   26.6    58   17.6   27.1  10.36 1.1607    114    1    100.0    5 
30/10/14  17:35   16.6   16.6   16.6    88   14.6   4.0     E   0.33   6.0     E   16.6   16.8   16.8  1018.2  0.00   0.0   0.006   0.000   26.5    58   17.6   27.1  10.36 1.1610    118    1    100.0    5 
30/10/14  17:40   16.4   16.6   16.4    88   14.5   4.0     E   0.33   6.0     E   16.4   16.7   16.7  1018.2  0.20   0.0   0.007   0.000   26.5    58   17.6   27.1  10.36 1.1611    117    1    100.0    5 
30/10/14  17:45   16.4   16.4   16.4    89   14.6   4.0     E   0.33   6.0     E   16.4   16.6   16.6  1018.2  0.00   0.0   0.007   0.000   26.4    58   17.5   27.0  10.37 1.1613    115    1    100.0    5 
30/10/14  17:50   16.3   16.4   16.3    89   14.5   5.0     E   0.42   7.0     E   16.3   16.6   16.6  1018.2  0.00   0.0   0.007   0.000   26.4    58   17.5   27.0  10.37 1.1613    117    1    100.0    5 
30/10/14  17:55   16.3   16.3   16.3    89   14.5   4.0     E   0.33   7.0     E   16.3   16.5   16.5  1018.1  0.00   0.0   0.007   0.000   26.5    58   17.6   27.1  10.36 1.1610    116    1    100.0    5 
30/10/14  18:00   16.3   16.3   16.3    90   14.6   4.0     E   0.33   7.0   ESE   16.3   16.5   16.5  1018.2  0.00   0.0   0.007   0.000   26.5    59   17.8   27.1  10.56 1.1606    117    1    100.0    5 
30/10/14  18:05   16.2   16.3   16.2    90   14.6   4.0     E   0.33   7.0     E   16.2   16.4   16.4  1018.2  0.00   0.0   0.007   0.000   26.6    60   18.2   27.3  10.76 1.1599    115    1    100.0    5 
30/10/14  18:10   16.2   16.2   16.2    90   14.5   5.0     E   0.42   7.0     E   16.2   16.4   16.4  1018.1  0.00   0.0   0.008   0.000   26.6    60   18.2   27.3  10.75 1.1596    117    1    100.0    5 
30/10/14  18:15   16.1   16.2   16.1    90   14.5   5.0     E   0.42   7.0     E   16.1   16.3   16.3  1018.1  0.00   0.0   0.008   0.000   26.6    61   18.5   27.4  10.95 1.1591    117    1    100.0    5 
30/10/14  18:20   16.1   16.1   16.1    90   14.4   5.0     E   0.42   6.0     E   16.1   16.3   16.3  1018.1  0.00   0.0   0.008   0.000   26.7    61   18.5   27.4  10.95 1.1588    117    1    100.0    5 
30/10/14  18:25   16.1   16.1   16.0    91   14.6   5.0     E   0.42   7.0     E   16.1   16.3   16.3  1018.0  0.00   0.0   0.008   0.000   26.7    61   18.6   27.6  10.95 1.1584    117    1    100.0    5 
30/10/14  18:30   16.0   16.0   16.0    91   14.5   4.0     E   0.33   7.0   ENE   16.0   16.2   16.2  1017.9  0.00   0.0   0.008   0.000   26.7    62   18.8   27.6  11.15 1.1579    116    1    100.0    5 
30/10/14  18:35   15.9   16.0   15.9    91   14.5   4.0     E   0.33   6.0     E   15.9   16.2   16.2  1017.9  0.00   0.0   0.008   0.000   26.8    62   18.9   27.7  11.15 1.1576    116    1    100.0    5 
30/10/14  18:40   15.9   15.9   15.9    91   14.5   4.0     E   0.33   7.0     E   15.9   16.2   16.2  1017.9  0.00   0.0   0.008   0.000   26.7    62   18.8   27.6  11.15 1.1578    118    1    100.0    5 
30/10/14  18:45   15.9   15.9   15.9    91   14.4   4.0     E   0.33   7.0   ENE   15.9   16.1   16.1  1017.8  0.00   0.0   0.008   0.000   26.7    62   18.8   27.6  11.15 1.1578    116    1    100.0    5 
30/10/14  18:50   15.8   15.9   15.8    91   14.4   5.0     E   0.42   8.0   ENE   15.8   16.1   16.1  1017.7  0.00   0.0   0.009   0.000   26.7    62   18.8   27.6  11.15 1.1580    117    1    100.0    5 
30/10/14  18:55   15.8   15.9   15.8    91   14.4   5.0     E   0.42   8.0     E   15.8   16.1   16.1  1017.7  0.00   0.0   0.009   0.000   26.7    61   18.5   27.4  10.95 1.1584    116    1    100.0    5 
30/10/14  19:00   15.8   15.8   15.8    91   14.4   5.0     E   0.42   8.0     E   15.8   16.1   16.1  1017.8  0.00   0.0   0.009   0.000   26.7    61   18.5   27.4  10.95 1.1585    116    1    100.0    5 
30/10/14  19:05   15.8   15.8   15.8    92   14.5   5.0     E   0.42   8.0     E   15.8   16.1   16.1  1017.8  0.00   0.0   0.009   0.000   26.6    61   18.5   27.4  10.95 1.1588    117    1    100.0    5 
30/10/14  19:10   15.8   15.8   15.8    92   14.5   5.0     E   0.42   7.0     E   15.8   16.1   16.1  1017.8  0.00   0.0   0.009   0.000   26.6    61   18.4   27.3  10.95 1.1591    116    1    100.0    5 
30/10/14  19:15   15.8   15.8   15.8    92   14.5   5.0     E   0.42   7.0     E   15.8   16.0   16.0  1017.9  0.00   0.0   0.009   0.000   26.6    61   18.4   27.3  10.95 1.1591    116    1    100.0    5 
30/10/14  19:20   15.8   15.8   15.8    92   14.5   5.0     E   0.42   7.0     E   15.8   16.0   16.0  1018.0  0.00   0.0   0.009   0.000   26.6    61   18.4   27.3  10.95 1.1593    116    1    100.0    5 
30/10/14  19:25   15.8   15.8   15.8    92   14.5   5.0     E   0.42   6.0     E   15.8   16.0   16.0  1018.0  0.00   0.0   0.009   0.000   26.5    61   18.4   27.3  10.96 1.1595    115    1    100.0    5 
30/10/14  19:30   15.7   15.8   15.7    92   14.4   4.0     E   0.33   6.0     E   15.7   15.9   15.9  1018.0  0.00   0.0   0.009   0.000   26.5    61   18.4   27.3  10.96 1.1596    116    1    100.0    5 
30/10/14  19:35   15.7   15.8   15.7    92   14.4   4.0     E   0.33   6.0     E   15.7   15.9   15.9  1018.1  0.00   0.0   0.009   0.000   26.5    61   18.4   27.3  10.96 1.1597    117    1    100.0    5 
30/10/14  19:40   15.7   15.7   15.7    92   14.4   3.0     E   0.25   6.0     E   15.7   15.9   15.9  1018.1  0.00   0.0   0.009   0.000   26.4    61   18.3   27.2  10.96 1.1600    118    1    100.0    5 
30/10/14  19:45   15.7   15.7   15.7    92   14.4   2.0   ESE   0.17   3.0   ESE   15.7   15.9   15.9  1018.1  0.00   0.0   0.009   0.000   26.4    61   18.3   27.2  10.96 1.1600    117    1    100.0    5 
30/10/14  19:50   15.7   15.7   15.7    92   14.4   1.0   ESE   0.08   2.0   ESE   15.7   15.9   15.9  1018.2  0.00   0.0   0.009   0.000   26.4    61   18.3   27.2  10.96 1.1601    116    1    100.0    5 
30/10/14  19:55   15.7   15.7   15.7    92   14.4   2.0    SE   0.17   3.0    SE   15.7   15.9   15.9  1018.1  0.00   0.0   0.009   0.000   26.4    61   18.3   27.2  10.96 1.1600    116    1    100.0    5 
30/10/14  20:00   15.7   15.7   15.6    92   14.4   1.0    SE   0.08   3.0    SE   15.7   15.9   15.9  1018.1  0.00   0.0   0.009   0.000   26.4    61   18.3   27.1  10.96 1.1603    117    1    100.0    5 
30/10/14  20:05   15.7   15.7   15.6    92   14.4   1.0    SE   0.08   2.0    SE   15.7   15.9   15.9  1018.1  0.00   0.0   0.009   0.000   26.4    61   18.3   27.1  10.96 1.1603    117    1    100.0    5 
30/10/14  20:10   15.7   15.7   15.7    92   14.4   0.0    SE   0.00   1.0    SE   15.7   15.9   15.9  1018.1  0.00   0.0   0.009   0.000   26.3    61   18.2   27.1  10.96 1.1606    117    1    100.0    5 
30/10/14  20:15   15.7   15.7   15.7    92   14.4   1.0    SE   0.08   5.0     S   15.7   15.9   15.9  1018.2  0.00   0.0   0.009   0.000   26.3    61   18.2   27.1  10.96 1.1607    117    1    100.0    5 
30/10/14  20:20   15.8   15.8   15.7    92   14.5   4.0   SSW   0.33   7.0   SSW   15.8   16.0   16.0  1018.2  0.00   0.0   0.009   0.000   26.3    61   18.2   27.0  10.96 1.1610    117    1    100.0    5 
30/10/14  20:25   15.8   15.8   15.8    92   14.5   7.0     S   0.58   9.0     S   15.4   16.1   15.7  1018.2  0.00   0.0   0.009   0.000   26.3    61   18.2   27.0  10.96 1.1610    117    1    100.0    5 
30/10/14  20:30   15.9   15.9   15.8    92   14.6   7.0     S   0.58   9.0     S   15.5   16.1   15.7  1018.2  0.00   0.0   0.008   0.000   26.2    61   18.1   26.9  10.97 1.1613    116    1    100.0    5 
30/10/14  20:35   15.9   15.9   15.9    92   14.6   7.0     S   0.58  10.0     S   15.5   16.1   15.7  1018.2  0.00   0.0   0.008   0.000   26.2    61   18.1   26.9  10.97 1.1613    117    1    100.0    5 
30/10/14  20:40   15.9   15.9   15.9    92   14.6   7.0     S   0.58   9.0     S   15.6   16.2   15.8  1018.2  0.00   0.0   0.008   0.000   26.2    61   18.1   26.9  10.97 1.1613    117    1    100.0    5 
30/10/14  20:45   15.9   15.9   15.9    92   14.6   8.0     S   0.67  10.0     S   15.2   16.2   15.4  1018.3  0.00   0.0   0.008   0.000   26.2    61   18.1   26.8  10.97 1.1618    118    1    100.0    5 
30/10/14  20:50   15.9   15.9   15.9    92   14.6   7.0     S   0.58  10.0     S   15.6   16.2   15.8  1018.3  0.00   0.0   0.008   0.000   26.2    61   18.1   26.8  10.97 1.1618    117    1    100.0    5 
30/10/14  20:55   16.0   16.0   15.9    92   14.7   7.0     S   0.58   9.0     S   15.7   16.2   15.9  1018.3  0.00   0.0   0.008   0.000   26.1    61   18.0   26.8  10.97 1.1620    117    1    100.0    5 
30/10/14  21:00   15.9   16.0   15.9    92   14.6   6.0     S   0.50   8.0     S   15.8   16.2   16.0  1018.3  0.00   0.0   0.008   0.000   26.1    61   18.0   26.8  10.97 1.1620    117    1    100.0    5 
30/10/14  21:05   15.9   15.9   15.9    92   14.6   6.0     S   0.50   8.0     S   15.8   16.2   16.0  1018.4  0.00   0.0   0.008   0.000   26.2    62   18.3   26.9  11.17 1.1614    115    1    100.0    5 
30/10/14  21:10   15.9   15.9   15.9    92   14.6   5.0     S   0.42   7.0     S   15.9   16.2   16.2  1018.3  0.00   0.0   0.008   0.000   26.2    62   18.3   26.9  11.17 1.1614    117    1    100.0    5 
30/10/14  21:15   15.9   15.9   15.9    92   14.6   5.0   SSE   0.42   6.0     S   15.9   16.1   16.1  1018.3  0.00   0.0   0.008   0.000   26.2    63   18.6   27.1  11.37 1.1606    116    1    100.0    5 
30/10/14  21:20   15.9   15.9   15.9    92   14.6   5.0   SSE   0.42   6.0   SSE   15.9   16.1   16.1  1018.3  0.00   0.0   0.008   0.000   26.3    64   18.9   27.2  11.56 1.1599    115    1    100.0    5 
30/10/14  21:25   15.8   15.9   15.8    92   14.5   5.0   SSE   0.42   7.0   SSE   15.8   16.1   16.1  1018.3  0.00   0.0   0.009   0.000   26.3    64   18.9   27.2  11.56 1.1599    117    1    100.0    5 
30/10/14  21:30   15.8   15.8   15.8    93   14.6   5.0   SSE   0.42   7.0   SSE   15.8   16.0   16.0  1018.3  0.00   0.0   0.009   0.000   26.3    63   18.7   27.1  11.36 1.1603    116    1    100.0    5 
30/10/14  21:35   15.8   15.8   15.7    93   14.6   5.0   SSE   0.42   7.0   SSE   15.8   16.0   16.0  1018.2  0.00   0.0   0.009   0.000   26.3    63   18.7   27.2  11.36 1.1599    117    1    100.0    5 
30/10/14  21:40   15.7   15.8   15.7    93   14.6   5.0   SSE   0.42   6.0   SSE   15.7   15.9   15.9  1018.2  0.00   0.0   0.009   0.000   26.3    63   18.7   27.1  11.36 1.1602    116    1    100.0    5 
30/10/14  21:45   15.7   15.7   15.7    93   14.5   4.0    SE   0.33   6.0    SE   15.7   15.9   15.9  1018.2  0.00   0.0   0.009   0.000   26.3    63   18.7   27.1  11.36 1.1602    117    1    100.0    5 
30/10/14  21:50   15.7   15.7   15.7    93   14.5   4.0    SE   0.33   5.0    SE   15.7   15.9   15.9  1018.1  0.00   0.0   0.009   0.000   26.3    63   18.7   27.1  11.36 1.1601    117    1    100.0    5 
30/10/14  21:55   15.6   15.7   15.6    93   14.5   3.0    SE   0.25   4.0    SE   15.6   15.8   15.8  1018.0  0.00   0.0   0.009   0.000   26.2    63   18.6   27.1  11.37 1.1603    116    1    100.0    5 
30/10/14  22:00   15.6   15.6   15.6    93   14.5   3.0    SE   0.25   5.0    SE   15.6   15.8   15.8  1018.1  0.00   0.0   0.009   0.000   26.2    62   18.4   27.0  11.17 1.1608    115    1    100.0    5 
30/10/14  22:05   15.6   15.6   15.6    93   14.4   4.0    SE   0.33   5.0    SE   15.6   15.8   15.8  1018.1  0.00   0.0   0.010   0.000   26.2    62   18.3   26.9  11.17 1.1610    117    1    100.0    5 
30/10/14  22:10   15.6   15.6   15.6    93   14.4   4.0   SSE   0.33   5.0   SSE   15.6   15.8   15.8  1018.1  0.00   0.0   0.010   0.000   26.2    62   18.3   26.9  11.17 1.1610    117    1    100.0    5 
30/10/14  22:15   15.5   15.6   15.5    93   14.4   4.0   SSE   0.33   6.0   SSE   15.5   15.7   15.7  1018.1  0.00   0.0   0.010   0.000   26.1    62   18.3   26.8  11.17 1.1614    117    1    100.0    5 
30/10/14  22:20   15.5   15.5   15.5    93   14.4   3.0   SSE   0.25   4.0   SSE   15.5   15.7   15.7  1018.1  0.00   0.0   0.010   0.000   26.1    62   18.3   26.8  11.17 1.1614    117    1    100.0    5 
30/10/14  22:25   15.4   15.5   15.4    93   14.3   1.0   SSE   0.08   3.0   SSE   15.4   15.7   15.7  1018.1  0.00   0.0   0.010   0.000   26.1    62   18.3   26.8  11.17 1.1614    115    1    100.0    5 
30/10/14  22:30   15.4   15.4   15.4    93   14.3   1.0   SSE   0.08   2.0   SSE   15.4   15.7   15.7  1018.1  0.20   0.0   0.010   0.000   26.1    62   18.3   26.8  11.17 1.1613    116    1    100.0    5 
30/10/14  22:35   15.4   15.4   15.4    93   14.3   0.0   SSE   0.00   1.0   SSE   15.4   15.6   15.6  1018.1  0.00   0.0   0.010   0.000   26.2    62   18.3   26.9  11.17 1.1611    117    1    100.0    5 
30/10/14  22:40   15.4   15.4   15.4    93   14.3   0.0   SSE   0.00   1.0   SSE   15.4   15.6   15.6  1018.0  0.00   0.0   0.010   0.000   26.2    62   18.3   26.9  11.17 1.1610    115    1    100.0    5 
30/10/14  22:45   15.4   15.4   15.4    93   14.3   0.0   SSE   0.00   1.0   SSE   15.4   15.7   15.7  1018.1  0.00   0.0   0.010   0.000   26.2    62   18.3   26.9  11.17 1.1611    116    1    100.0    5 
30/10/14  22:50   15.4   15.4   15.4    93   14.3   0.0   ---   0.00   0.0   ---   15.4   15.7   15.7  1018.0  0.00   0.0   0.010   0.000   26.2    62   18.3   26.9  11.17 1.1610    118    1    100.0    5 
30/10/14  22:55   15.4   15.4   15.4    93   14.3   0.0   ---   0.00   0.0   ---   15.4   15.7   15.7  1018.1  0.00   0.0   0.010   0.000   26.2    62   18.3   26.9  11.17 1.1611    116    1    100.0    5 
30/10/14  23:00   15.4   15.4   15.4    93   14.3   0.0   SSE   0.00   2.0   SSE   15.4   15.7   15.7  1018.1  0.00   0.0   0.010   0.000   26.2    62   18.3   26.9  11.17 1.1611    117    1    100.0    5 
30/10/14  23:05   15.4   15.4   15.4    93   14.3   0.0   SSE   0.00   1.0   SSE   15.4   15.7   15.7  1018.1  0.00   0.0   0.010   0.000   26.2    62   18.4   27.0  11.17 1.1608    117    1    100.0    5 
30/10/14  23:10   15.4   15.4   15.4    93   14.3   0.0   SSE   0.00   2.0   SSE   15.4   15.6   15.6  1018.1  0.00   0.0   0.010   0.000   26.2    62   18.4   27.0  11.17 1.1608    114    1    100.0    5 
30/10/14  23:15   15.4   15.4   15.4    94   14.5   2.0     S   0.17   6.0     S   15.4   15.7   15.7  1018.1  0.00   0.0   0.010   0.000   26.2    62   18.4   27.0  11.17 1.1607    115    1    100.0    5 
30/10/14  23:20   15.5   15.5   15.4    94   14.5   3.0     S   0.25   5.0     S   15.5   15.7   15.7  1018.2  0.00   0.0   0.010   0.000   26.2    62   18.4   27.0  11.17 1.1609    116    1    100.0    5 
30/10/14  23:25   15.6   15.6   15.5    94   14.6   2.0     S   0.17   4.0     S   15.6   15.8   15.8  1018.2  0.00   0.0   0.010   0.000   26.2    62   18.3   26.9  11.17 1.1612    117    1    100.0    5 
30/10/14  23:30   15.6   15.6   15.6    94   14.6   3.0     S   0.25   5.0   SSE   15.6   15.8   15.8  1018.2  0.00   0.0   0.009   0.000   26.2    62   18.3   26.9  11.17 1.1612    116    1    100.0    5 
30/10/14  23:35   15.7   15.7   15.6    94   14.7   5.0     S   0.42   7.0     S   15.7   15.9   15.9  1018.2  0.00   0.0   0.009   0.000   26.1    62   18.3   26.8  11.17 1.1615    117    1    100.0    5 
30/10/14  23:40   15.7   15.7   15.6    94   14.7   6.0     S   0.50   9.0     S   15.4   15.9   15.7  1018.1  0.00   0.0   0.009   0.000   26.1    62   18.3   26.8  11.17 1.1614    117    1    100.0    5 
30/10/14  23:45   15.7   15.7   15.7    94   14.8   7.0     S   0.58  11.0     S   15.3   15.9   15.6  1018.0  0.00   0.0   0.009   0.000   26.1    62   18.2   26.8  11.17 1.1616    116    1    100.0    5 
30/10/14  23:50   15.8   15.8   15.7    93   14.6   7.0     S   0.58  11.0     S   15.4   16.0   15.6  1018.1  0.00   0.0   0.009   0.000   26.1    62   18.2   26.8  11.17 1.1616    116    1    100.0    5 
30/10/14  23:55   15.8   15.8   15.7    93   14.6   6.0     S   0.50   9.0     S   15.6   16.0   15.8  1018.1  0.00   0.0   0.009   0.000   26.0    62   18.2   26.7  11.17 1.1619    118    1    100.0    5 
31/10/14  00:00   15.7   15.8   15.7    93   14.6   7.0     S   0.58   9.0     S   15.3   15.9   15.6  1017.9  0.00   0.0   0.009   0.000   26.0    62   18.2   26.7  11.17 1.1618    116    1    100.0    5 
31/10/14   0:05   15.7   15.8   15.7    93   14.6   6.0     S   0.50   8.0     S   15.6   15.9   15.8  1018.0  0.00   0.0   0.009   0.000   26.0    62   18.2   26.7  11.17 1.1619    114    1    100.0    5 
31/10/14   0:10   15.7   15.8   15.7    93   14.6   6.0     S   0.50   8.0     S   15.6   15.9   15.8  1018.0  0.00   0.0   0.009   0.000   25.9    62   18.1   26.7  11.18 1.1622    116    1    100.0    5 
31/10/14   0:15   15.7   15.7   15.7    93   14.6   7.0     S   0.58   9.0     S   15.3   15.9   15.6  1017.9  0.00   0.0   0.009   0.000   25.9    62   18.1   26.7  11.18 1.1621    117    1    100.0    5 
31/10/14   0:20   15.7   15.7   15.7    93   14.6   7.0     S   0.58   9.0     S   15.3   15.9   15.6  1018.0  0.00   0.0   0.009   0.000   25.9    62   18.1   26.7  11.18 1.1622    118    1    100.0    5 
31/10/14   0:25   15.7   15.7   15.7    93   14.6   6.0   SSE   0.50   9.0     S   15.6   15.9   15.8  1017.9  0.00   0.0   0.009   0.000   25.9    62   18.1   26.7  11.18 1.1620    117    1    100.0    5 
31/10/14   0:30   15.7   15.7   15.7    93   14.6   6.0   SSE   0.50   8.0     S   15.6   15.9   15.8  1017.9  0.00   0.0   0.009   0.000   25.9    62   18.0   26.6  11.18 1.1623    117    1    100.0    5 
31/10/14   0:35   15.8   15.8   15.7    93   14.6   5.0   SSE   0.42   7.0   SSE   15.8   16.0   16.0  1018.0  0.00   0.0   0.009   0.000   25.9    61   17.8   26.5  10.98 1.1628    116    1    100.0    5 
31/10/14   0:40   15.8   15.8   15.7    93   14.6   4.0     S   0.33   6.0     S   15.8   16.0   16.0  1018.1  0.00   0.0   0.009   0.000   25.9    61   17.8   26.5  10.98 1.1629    116    1    100.0    5 
31/10/14   0:45   15.8   15.8   15.7    93   14.6   4.0     S   0.33   6.0     S   15.8   16.0   16.0  1018.0  0.00   0.0   0.009   0.000   25.8    61   17.7   26.4  10.98 1.1632    117    1    100.0    5 
31/10/14   0:50   15.8   15.8   15.7    93   14.6   4.0     S   0.33   5.0     S   15.8   16.0   16.0  1018.1  0.00   0.0   0.009   0.000   25.8    61   17.7   26.4  10.98 1.1632    117    1    100.0    5 
31/10/14   0:55   15.7   15.8   15.7    93   14.6   3.0     S   0.25   5.0     S   15.7   15.9   15.9  1018.1  0.00   0.0   0.009   0.000   25.8    61   17.7   26.4  10.98 1.1632    116    1    100.0    5 
31/10/14   1:00   15.7   15.7   15.7    93   14.6   3.0   SSE   0.25   4.0     S   15.7   15.9   15.9  1018.0  0.00   0.0   0.009   0.000   25.8    61   17.7   26.4  10.98 1.1634    117    1    100.0    5 
31/10/14   1:05   15.7   15.7   15.7    93   14.6   2.0   SSE   0.17   4.0   SSE   15.7   15.9   15.9  1017.9  0.00   0.0   0.009   0.000   25.8    61   17.7   26.4  10.98 1.1633    117    1    100.0    5 
31/10/14   1:10   15.7   15.7   15.7    93   14.5   1.0   SSE   0.08   2.0   SSE   15.7   15.9   15.9  1018.0  0.00   0.0   0.009   0.000   25.7    61   17.6   26.3  10.98 1.1637    117    1    100.0    5 
31/10/14   1:15   15.7   15.7   15.7    94   14.7   0.0   SSE   0.00   2.0   SSE   15.7   15.9   15.9  1018.0  0.00   0.0   0.009   0.000   25.7    61   17.6   26.3  10.98 1.1637    117    1    100.0    5 
31/10/14   1:20   15.7   15.7   15.7    94   14.7   0.0   ---   0.00   0.0   ---   15.7   15.9   15.9  1018.0  0.00   0.0   0.009   0.000   25.7    61   17.6   26.3  10.98 1.1637    116    1    100.0    5 
31/10/14   1:25   15.6   15.7   15.6    93   14.4   1.0   SSE   0.08   2.0   SSE   15.6   15.8   15.8  1018.1  0.00   0.0   0.010   0.000   25.7    61   17.6   26.3  10.98 1.1638    117    1    100.0    5 
31/10/14   1:30   15.4   15.6   15.4    93   14.3   2.0    NE   0.17   3.0   SSE   15.4   15.7   15.7  1018.1  0.00   0.0   0.010   0.000   25.7    61   17.6   26.2  10.99 1.1641    116    1    100.0    5 
31/10/14   1:35   15.4   15.4   15.4    93   14.3   1.0    NE   0.08   2.0    NE   15.4   15.6   15.6  1018.1  0.00   0.0   0.010   0.000   25.7    61   17.6   26.2  10.99 1.1641    116    1    100.0    5 
31/10/14   1:40   15.3   15.4   15.3    94   14.4   1.0     E   0.08   3.0     E   15.3   15.6   15.6  1018.0  0.00   0.0   0.010   0.000   25.7    61   17.6   26.2  10.99 1.1640    113    1     99.1    5 
31/10/14   1:45   15.4   15.4   15.3    94   14.4   3.0    SE   0.25   5.0    SE   15.4   15.6   15.6  1018.0  0.00   0.0   0.010   0.000   25.6    61   17.5   26.2  10.99 1.1643    117    1    100.0    5 
31/10/14   1:50   15.5   15.5   15.4    94   14.5   5.0   SSE   0.42   7.0   SSE   15.5   15.7   15.7  1018.0  0.00   0.0   0.010   0.000   25.6    61   17.5   26.2  10.99 1.1643    115    1    100.0    5 
31/10/14   1:55   15.6   15.6   15.5    94   14.6   5.0   SSE   0.42   6.0   SSE   15.6   15.8   15.8  1018.0  0.00   0.0   0.010   0.000   25.6    61   17.5   26.2  10.99 1.1643    116    1    100.0    5 
31/10/14   2:00   15.6   15.6   15.6    94   14.6   5.0   SSE   0.42   7.0   SSE   15.6   15.8   15.8  1017.9  0.00   0.0   0.009   0.000   25.6    61   17.5   26.1  10.99 1.1645    115    1    100.0    5 
31/10/14   2:05   15.7   15.7   15.6    94   14.7   4.0   SSE   0.33   6.0   SSE   15.7   15.9   15.9  1017.9  0.00   0.0   0.009   0.000   25.6    61   17.5   26.1  10.99 1.1645    117    1    100.0    5 
31/10/14   2:10   15.7   15.7   15.7    94   14.7   4.0   SSE   0.33   6.0   SSE   15.7   15.9   15.9  1017.9  0.00   0.0   0.009   0.000   25.6    61   17.5   26.1  10.99 1.1645    116    1    100.0    5 
31/10/14   2:15   15.7   15.7   15.7    94   14.7   3.0    SE   0.25   4.0   SSE   15.7   15.9   15.9  1018.0  0.00   0.0   0.009   0.000   25.6    61   17.5   26.1  10.99 1.1646    117    1    100.0    5 
31/10/14   2:20   15.6   15.7   15.6    94   14.6   3.0    SE   0.25   5.0    SE   15.6   15.8   15.8  1017.9  0.00   0.0   0.009   0.000   25.5    61   17.4   26.1  10.99 1.1647    116    1    100.0    5 
31/10/14   2:25   15.6   15.6   15.6    94   14.6   2.0    SE   0.17   4.0    SE   15.6   15.8   15.8  1017.9  0.00   0.0   0.010   0.000   25.5    61   17.4   26.1  10.99 1.1648    118    1    100.0    5 
31/10/14   2:30   15.6   15.6   15.6    94   14.6   2.0    SE   0.17   3.0    SE   15.6   15.8   15.8  1017.8  0.00   0.0   0.010   0.000   25.5    60   17.2   26.0  10.83 1.1651    115    1    100.0    5 
31/10/14   2:35   15.5   15.6   15.5    94   14.5   2.0    SE   0.17   4.0    SE   15.5   15.7   15.7  1017.8  0.00   0.0   0.010   0.000   25.4    60   17.1   25.9  10.84 1.1653    117    1    100.0    5 
31/10/14   2:40   15.5   15.5   15.5    94   14.5   3.0   ESE   0.25   4.0    SE   15.5   15.7   15.7  1017.7  0.00   0.0   0.010   0.000   25.4    60   17.1   25.9  10.84 1.1652    117    1    100.0    5 
31/10/14   2:45   15.4   15.5   15.4    94   14.5   3.0   ESE   0.25   4.0   ESE   15.4   15.7   15.7  1017.7  0.00   0.0   0.010   0.000   25.4    60   17.1   25.9  10.84 1.1653    116    1    100.0    5 
31/10/14   2:50   15.4   15.4   15.4    94   14.5   3.0   ESE   0.25   4.0   ESE   15.4   15.7   15.7  1017.8  0.00   0.0   0.010   0.000   25.4    60   17.1   25.9  10.84 1.1654    117    1    100.0    5 
31/10/14   2:55   15.4   15.4   15.4    94   14.4   3.0   ESE   0.25   4.0   ESE   15.4   15.6   15.6  1017.7  0.00   0.0   0.010   0.000   25.4    60   17.1   25.9  10.84 1.1655    117    1    100.0    5 
31/10/14   3:00   15.4   15.4   15.4    94   14.4   2.0   ESE   0.17   4.0   ESE   15.4   15.6   15.6  1017.7  0.00   0.0   0.010   0.000   25.4    60   17.1   25.9  10.84 1.1655    116    1    100.0    5 
31/10/14   3:05   15.4   15.4   15.4    94   14.4   2.0   ESE   0.17   4.0   ESE   15.4   15.6   15.6  1017.7  0.00   0.0   0.010   0.000   25.4    60   17.1   25.9  10.84 1.1655    115    1    100.0    5 
31/10/14   3:10   15.3   15.4   15.3    94   14.4   2.0   ESE   0.17   4.0   ESE   15.3   15.6   15.6  1017.7  0.00   0.0   0.010   0.000   25.4    60   17.1   25.9  10.84 1.1655    116    1    100.0    5 
31/10/14   3:15   15.3   15.3   15.3    94   14.4   3.0   ESE   0.25   5.0   ESE   15.3   15.6   15.6  1017.6  0.00   0.0   0.010   0.000   25.3    60   17.0   25.8  10.85 1.1657    116    1    100.0    5 
31/10/14   3:20   15.3   15.3   15.3    94   14.4   4.0   ESE   0.33   5.0   ESE   15.3   15.6   15.6  1017.6  0.00   0.0   0.010   0.000   25.3    60   17.0   25.8  10.85 1.1657    117    1    100.0    5 
31/10/14   3:25   15.4   15.4   15.3    94   14.4   4.0    SE   0.33   6.0    SE   15.4   15.6   15.6  1017.5  0.00   0.0   0.010   0.000   25.3    60   17.0   25.8  10.85 1.1656    116    1    100.0    5 
31/10/14   3:30   15.4   15.4   15.4    94   14.5   5.0    SE   0.42   6.0    SE   15.4   15.7   15.7  1017.5  0.00   0.0   0.010   0.000   25.3    60   17.0   25.8  10.85 1.1659    118    1    100.0    5 
31/10/14   3:35   15.4   15.4   15.4    94   14.5   4.0    SE   0.33   6.0    SE   15.4   15.7   15.7  1017.6  0.00   0.0   0.010   0.000   25.3    60   17.0   25.8  10.85 1.1657    116    1    100.0    5 
31/10/14   3:40   15.5   15.5   15.4    94   14.5   4.0   SSE   0.33   7.0   SSE   15.5   15.7   15.7  1017.5  0.00   0.0   0.010   0.000   25.3    60   17.0   25.8  10.85 1.1659    117    1    100.0    5 
31/10/14   3:45   15.6   15.6   15.5    94   14.6   5.0     S   0.42   8.0     S   15.6   15.8   15.8  1017.5  0.00   0.0   0.009   0.000   25.3    60   17.0   25.8  10.85 1.1659    117    1    100.0    5 
31/10/14   3:50   15.7   15.7   15.6    94   14.8   6.0     S   0.50   8.0    SW   15.6   15.9   15.8  1017.5  0.00   0.0   0.009   0.000   25.3    60   17.0   25.8  10.85 1.1659    116    1    100.0    5 
31/10/14   3:55   15.7   15.7   15.7    94   14.8   6.0     S   0.50   8.0     S   15.6   15.9   15.8  1017.5  0.00   0.0   0.009   0.000   25.2    60   16.9   25.7  10.85 1.1662    116    1    100.0    5 
31/10/14   4:00   15.8   15.8   15.7    94   14.8   5.0     S   0.42   7.0     S   15.8   16.0   16.0  1017.6  0.00   0.0   0.009   0.000   25.2    60   16.9   25.7  10.85 1.1663    117    1    100.0    5 
31/10/14   4:05   15.8   15.8   15.7    94   14.8   5.0     S   0.42   7.0     S   15.8   16.0   16.0  1017.6  0.00   0.0   0.009   0.000   25.2    60   16.9   25.7  10.85 1.1663    116    1    100.0    5 
31/10/14   4:10   15.8   15.8   15.8    94   14.8   4.0     S   0.33   7.0   SSE   15.8   16.0   16.0  1017.7  0.00   0.0   0.009   0.000   25.2    60   16.9   25.7  10.85 1.1664    115    1    100.0    5 
31/10/14   4:15   15.8   15.8   15.8    94   14.8   4.0     S   0.33   7.0   SSE   15.8   16.0   16.0  1017.7  0.00   0.0   0.009   0.000   25.2    60   16.9   25.7  10.85 1.1664    117    1    100.0    5 
31/10/14   4:20   15.7   15.8   15.7    94   14.8   2.0   SSE   0.17   5.0    SE   15.7   15.9   15.9  1017.7  0.00   0.0   0.009   0.000   25.2    60   16.9   25.6  10.86 1.1667    115    1    100.0    5 
31/10/14   4:25   15.7   15.7   15.7    94   14.8   2.0     S   0.17   4.0   SSE   15.7   15.9   15.9  1017.7  0.00   0.0   0.009   0.000   25.2    60   16.9   25.6  10.86 1.1667    116    1    100.0    5 
31/10/14   4:30   15.7   15.7   15.7    94   14.7   1.0   SSW   0.08   4.0   SSW   15.7   15.9   15.9  1017.7  0.00   0.0   0.009   0.000   25.2    60   16.9   25.6  10.86 1.1667    118    1    100.0    5 
31/10/14   4:35   15.7   15.7   15.7    94   14.7   1.0   SSW   0.08   5.0   SSW   15.7   15.9   15.9  1017.7  0.00   0.0   0.009   0.000   25.2    60   16.9   25.6  10.86 1.1667    116    1    100.0    5 
31/10/14   4:40   15.7   15.7   15.7    94   14.7   2.0   SSW   0.17   6.0   SSW   15.7   15.9   15.9  1017.6  0.00   0.0   0.009   0.000   25.1    60   16.8   25.6  10.86 1.1669    117    1    100.0    5 
31/10/14   4:45   15.7   15.7   15.7    94   14.7   0.0   SSW   0.00   2.0   SSW   15.7   15.9   15.9  1017.6  0.00   0.0   0.009   0.000   25.1    60   16.8   25.6  10.86 1.1668    116    1    100.0    5 
31/10/14   4:50   15.6   15.7   15.6    94   14.6   1.0   SSE   0.08   3.0   SSE   15.6   15.8   15.8  1017.5  0.00   0.0   0.009   0.000   25.1    60   16.8   25.6  10.86 1.1668    116    1    100.0    5 
31/10/14   4:55   15.5   15.6   15.5    94   14.5   0.0   SSE   0.00   2.0   SSE   15.5   15.7   15.7  1017.5  0.00   0.0   0.010   0.000   25.1    60   16.7   25.5  10.87 1.1671    116    1    100.0    5 
31/10/14   5:00   15.4   15.5   15.4    93   14.3   1.0   SSE   0.08   2.0   SSE   15.4   15.6   15.6  1017.5  0.00   0.0   0.010   0.000   25.1    60   16.7   25.5  10.87 1.1670    117    1    100.0    5 
31/10/14   5:05   15.3   15.4   15.3    93   14.2   2.0   SSE   0.17   3.0    SE   15.3   15.4   15.4  1017.5  0.00   0.0   0.011   0.000   25.1    60   16.7   25.5  10.87 1.1670    117    1    100.0    5 
31/10/14   5:10   15.2   15.3   15.2    93   14.0   1.0     E   0.08   3.0     E   15.2   15.3   15.3  1017.5  0.00   0.0   0.011   0.000   25.1    60   16.7   25.5  10.87 1.1670    115    1    100.0    5 
31/10/14   5:15   15.2   15.2   15.1    94   14.2   3.0   ESE   0.25   5.0    SE   15.2   15.4   15.4  1017.4  0.00   0.0   0.011   0.000   25.0    60   16.7   25.4  10.87 1.1673    115    1    100.0    5 
31/10/14   5:20   15.3   15.3   15.2    94   14.3   4.0   SSE   0.33   6.0   SSE   15.3   15.5   15.5  1017.4  0.00   0.0   0.011   0.000   25.0    60   16.7   25.4  10.87 1.1672    117    1    100.0    5 
31/10/14   5:25   15.4   15.4   15.3    94   14.4   5.0   SSE   0.42   8.0    SE   15.3   15.6   15.6  1017.4  0.00   0.0   0.010   0.000   25.0    60   16.7   25.4  10.87 1.1672    117    1    100.0    5 
31/10/14   5:30   15.5   15.5   15.4    94   14.5   5.0   SSE   0.42   7.0   SSE   15.5   15.7   15.7  1017.3  0.00   0.0   0.010   0.000   25.0    60   16.7   25.4  10.87 1.1671    116    1    100.0    5 
31/10/14   5:35   15.6   15.6   15.5    94   14.6   5.0   SSE   0.42   7.0     S   15.6   15.8   15.8  1017.4  0.00   0.0   0.010   0.000   24.9    60   16.6   25.4  10.87 1.1675    117    1    100.0    5 
31/10/14   5:40   15.6   15.6   15.6    94   14.6   6.0   SSE   0.50   9.0   SSE   15.4   15.8   15.6  1017.3  0.00   0.0   0.009   0.000   24.9    60   16.6   25.4  10.87 1.1674    117    1    100.0    5 
31/10/14   5:45   15.7   15.7   15.6    94   14.7   5.0   SSE   0.42   9.0   SSE   15.7   15.9   15.9  1017.3  0.00   0.0   0.009   0.000   24.9    60   16.6   25.4  10.87 1.1674    117    1    100.0    5 
31/10/14   5:50   15.7   15.7   15.7    94   14.8   6.0     S   0.50   9.0     S   15.6   15.9   15.8  1017.3  0.00   0.0   0.009   0.000   24.9    60   16.6   25.4  10.87 1.1673    117    1    100.0    5 
31/10/14   5:55   15.7   15.7   15.7    94   14.8   5.0     S   0.42   8.0     S   15.7   15.9   15.9  1017.3  0.00   0.0   0.009   0.000   24.9    60   16.6   25.4  10.87 1.1673    116    1    100.0    5 
31/10/14   6:00   15.7   15.8   15.7    94   14.8   6.0     S   0.50   9.0   SSE   15.6   15.9   15.8  1017.2  0.00   0.0   0.009   0.000   24.9    60   16.6   25.4  10.87 1.1673    117    1    100.0    5 
31/10/14   6:05   15.8   15.8   15.7    93   14.6   5.0     S   0.42   9.0     S   15.8   16.0   16.0  1017.2  0.00   0.0   0.009   0.000   24.9    60   16.6   25.3  10.88 1.1675    117    1    100.0    5 
31/10/14   6:10   15.7   15.8   15.7    93   14.6   4.0     S   0.33   6.0   SSE   15.7   15.9   15.9  1017.2  0.00   0.0   0.009   0.000   24.9    60   16.6   25.3  10.88 1.1676    117    1    100.0    5 
31/10/14   6:15   15.7   15.8   15.7    93   14.6   3.0   SSE   0.25   6.0    SE   15.7   15.9   15.9  1017.2  0.00   0.0   0.009   0.000   24.9    60   16.6   25.3  10.88 1.1675    117    1    100.0    5 
31/10/14   6:20   15.7   15.7   15.7    93   14.6   3.0    SE   0.25   5.0   SSE   15.7   15.9   15.9  1017.2  0.00   0.0   0.009   0.000   24.9    60   16.6   25.3  10.88 1.1676    117    1    100.0    5 
31/10/14   6:25   15.7   15.7   15.7    93   14.5   1.0    SE   0.08   3.0    SE   15.7   15.9   15.9  1017.3  0.00   0.0   0.009   0.000   24.8    59   16.3   25.2  10.68 1.1683    117    1    100.0    5 
31/10/14   6:30   15.6   15.7   15.6    93   14.5   1.0    SE   0.08   3.0    SE   15.6   15.8   15.8  1017.3  0.00   0.0   0.009   0.000   24.8    59   16.3   25.2  10.68 1.1683    117    1    100.0    5 
31/10/14   6:35   15.6   15.6   15.6    93   14.4   1.0   ESE   0.08   3.0   ESE   15.6   15.8   15.8  1017.3  0.00   0.0   0.010   0.000   24.8    59   16.3   25.2  10.68 1.1683    117    1    100.0    5 
31/10/14   6:40   15.5   15.6   15.5    93   14.4   3.0   ESE   0.25   8.0    SE   15.5   15.7   15.7  1017.3  0.00   0.0   0.010   0.000   24.8    59   16.3   25.2  10.68 1.1684    118    1    100.0    5 
31/10/14   6:45   15.5   15.5   15.5    94   14.5   3.0    SE   0.25   5.0    SE   15.5   15.7   15.7  1017.4  0.00   0.0   0.010   0.000   24.8    60   16.5   25.2  10.89 1.1683    117    1    100.0    5 
31/10/14   6:50   15.5   15.5   15.5    94   14.5   3.0    SE   0.25   5.0    SE   15.5   15.7   15.7  1017.4  0.00   0.0   0.010   0.000   24.8    60   16.5   25.3  10.88 1.1681    117    1    100.0    5 
31/10/14   6:55   15.5   15.5   15.5    94   14.5   3.0    SE   0.25   5.0   ESE   15.5   15.7   15.7  1017.5  0.00   0.0   0.010   0.000   24.8    60   16.5   25.3  10.88 1.1682    117    1    100.0    5 
31/10/14   7:00   15.4   15.5   15.4    93   14.3   2.0    SE   0.17   4.0    SE   15.4   15.7   15.7  1017.5  0.00   0.0   0.010   0.000   24.8    59   16.2   25.2  10.69 1.1689    117    1    100.0    5 
31/10/14   7:05   15.4   15.5   15.4    94   14.5   2.0    SE   0.17   5.0   SSE   15.4   15.7   15.7  1017.5  0.00   0.0   0.010   0.000   24.8    59   16.2   25.2  10.69 1.1689    117    1    100.0    5 
31/10/14   7:10   15.5   15.5   15.4    94   14.5   2.0   SSE   0.17   3.0   SSE   15.5   15.7   15.7  1017.5  0.00   0.0   0.010   0.000   24.8    59   16.2   25.2  10.69 1.1689    116    1    100.0    5 
31/10/14   7:15   15.5   15.5   15.4    94   14.5   1.0   SSE   0.08   3.0   SSE   15.5   15.7   15.7  1017.5  0.00   0.0   0.010   0.000   24.8    59   16.2   25.2  10.69 1.1689    117    1    100.0    5 
31/10/14   7:20   15.5   15.5   15.5    94   14.5   0.0   SSE   0.00   1.0   SSE   15.5   15.7   15.7  1017.5  0.00   0.0   0.010   0.000   24.7    59   16.2   25.1  10.69 1.1692    116    1    100.0    5 
31/10/14   7:25   15.5   15.5   15.5    94   14.5   0.0   ---   0.00   0.0   ---   15.5   15.7   15.7  1017.5  0.00   0.0   0.010   0.000   24.8    59   16.2   25.2  10.69 1.1689    117    1    100.0    5 
31/10/14   7:30   15.6   15.6   15.5    94   14.6   0.0   ---   0.00   0.0   ---   15.6   15.8   15.8  1017.6  0.00   0.0   0.010   0.000   24.7    59   16.2   25.1  10.69 1.1693    117    1    100.0    5 
31/10/14   7:35   15.6   15.6   15.6    94   14.6   0.0   SSE   0.00   1.0   SSE   15.6   15.8   15.8  1017.6  0.00   0.0   0.009   0.000   24.8    59   16.2   25.2  10.69 1.1690    117    1    100.0    5 
31/10/14   7:40   15.6   15.6   15.6    94   14.6   0.0   SSE   0.00   1.0   SSE   15.6   15.8   15.8  1017.7  0.00   0.0   0.009   0.000   24.7    59   16.2   25.1  10.69 1.1693    118    1    100.0    5 
31/10/14   7:45   15.7   15.7   15.6    94   14.7   0.0   ---   0.00   0.0   ---   15.7   15.9   15.9  1017.7  0.00   0.0   0.009   0.000   24.7    59   16.2   25.1  10.69 1.1694    117    1    100.0    5 
31/10/14   7:50   15.7   15.7   15.7    94   14.8   1.0   SSE   0.08   2.0   SSE   15.7   15.9   15.9  1017.7  0.00   0.0   0.009   0.000   24.8    59   16.2   25.2  10.69 1.1691    116    1    100.0    5 
31/10/14   7:55   15.8   15.8   15.7    94   14.9   2.0   ESE   0.17   3.0   ESE   15.8   16.1   16.1  1017.8  0.00   0.0   0.009   0.000   24.8    59   16.3   25.2  10.68 1.1689    117    1    100.0    5 
31/10/14   8:00   15.9   15.9   15.8    94   14.9   2.0     E   0.17   5.0     E   15.9   16.1   16.1  1017.7  0.00   0.0   0.008   0.000   24.8    58   16.0   25.2  10.48 1.1692    117    1    100.0    5 
31/10/14   8:05   16.0   16.0   15.9    94   15.0   2.0     E   0.17   3.0   ENE   16.0   16.3   16.3  1017.8  0.00   0.0   0.008   0.000   24.8    58   16.0   25.1  10.49 1.1695    117    1    100.0    5 
31/10/14   8:10   16.1   16.1   15.9    94   15.1   2.0   ESE   0.17   4.0    SE   16.1   16.4   16.4  1017.8  0.00   0.0   0.008   0.000   24.8    58   16.0   25.1  10.49 1.1695    117    1    100.0    5 
31/10/14   8:15   16.3   16.3   16.1    94   15.3   2.0    SE   0.17   4.0    SE   16.3   16.6   16.6  1017.9  0.00   0.0   0.007   0.000   24.8    58   16.0   25.1  10.49 1.1696    117    1    100.0    5 
31/10/14   8:20   16.5   16.5   16.3    94   15.5   3.0    SE   0.25   5.0    SE   16.5   16.8   16.8  1017.9  0.00   0.0   0.006   0.000   24.8    59   16.2   25.2  10.69 1.1693    117    1    100.0    5 
31/10/14   8:25   16.7   16.7   16.5    94   15.7   4.0    SE   0.33   7.0    SE   16.7   17.1   17.1  1017.9  0.00   0.0   0.006   0.000   24.8    59   16.2   25.2  10.69 1.1693    117    1    100.0    5 
31/10/14   8:30   16.8   16.8   16.7    94   15.8   5.0    SE   0.42   6.0    SE   16.8   17.2   17.2  1017.8  0.00   0.0   0.005   0.000   24.8    59   16.3   25.2  10.68 1.1689    117    1    100.0    5 
31/10/14   8:35   16.8   16.8   16.7    94   15.8   5.0    SE   0.42   8.0    SE   16.8   17.2   17.2  1017.8  0.00   0.0   0.005   0.000   24.8    59   16.2   25.2  10.69 1.1692    117    1    100.0    5 
31/10/14   8:40   16.8   16.8   16.8    93   15.6   6.0   SSE   0.50   8.0    SE   16.8   17.1   17.1  1017.9  0.00   0.0   0.005   0.000   24.8    59   16.2   25.2  10.69 1.1693    117    1    100.0    5 
31/10/14   8:45   16.9   16.9   16.8    93   15.7   4.0    SE   0.33   7.0   SSE   16.9   17.3   17.3  1017.9  0.00   0.0   0.005   0.000   24.8    59   16.2   25.2  10.69 1.1693    117    1    100.0    5 
31/10/14   8:50   17.1   17.1   16.9    94   16.1   3.0   SSE   0.25   5.0    SE   17.1   17.4   17.4  1017.9  0.00   0.0   0.004   0.000   24.8    59   16.2   25.2  10.69 1.1693    116    1    100.0    5 
31/10/14   8:55   17.3   17.3   17.1    93   16.1   3.0    SE   0.25   5.0    SE   17.3   17.7   17.7  1017.9  0.00   0.0   0.004   0.000   24.8    59   16.3   25.2  10.68 1.1690    117    1    100.0    5 
31/10/14   9:00   17.4   17.4   17.3    93   16.3   3.0   SSE   0.25   4.0   SSE   17.4   17.9   17.9  1017.9  0.00   0.0   0.003   0.000   24.9    59   16.3   25.3  10.68 1.1687    117    1    100.0    5 
31/10/14   9:05   17.5   17.5   17.4    92   16.2   4.0   SSE   0.33   5.0   SSE   17.5   17.9   17.9  1017.8  0.00   0.0   0.003   0.000   24.9    59   16.3   25.3  10.68 1.1686    117    1    100.0    5 
31/10/14   9:10   17.6   17.6   17.5    92   16.2   6.0   SSE   0.50   8.0    SE   17.6   18.0   18.0  1017.9  0.00   0.0   0.003   0.000   24.9    59   16.3   25.3  10.68 1.1688    117    1    100.0    5 
31/10/14   9:15   17.7   17.7   17.6    92   16.4   6.0    SE   0.50   8.0   SSE   17.7   18.2   18.2  1017.9  0.00   0.0   0.002   0.000   24.9    59   16.4   25.3  10.67 1.1684    117    1    100.0    5 
31/10/14   9:20   17.8   17.8   17.7    91   16.3   5.0    SE   0.42   7.0   SSE   17.8   18.3   18.3  1017.9  0.00   0.0   0.002   0.000   25.0    59   16.4   25.4  10.67 1.1682    116    1    100.0    5 
31/10/14   9:25   18.2   18.2   17.8    92   16.8   4.0    SE   0.33   5.0    SE   18.2   18.7   18.7  1017.9  0.00   0.0   0.001   0.000   25.0    60   16.7   25.4  10.87 1.1678    115    1    100.0    5 
31/10/14   9:30   18.4   18.4   18.2    91   16.9   4.0   ESE   0.33   5.0   ESE   18.4   19.1   19.1  1017.9  0.00   0.0   0.000   0.000   25.0    60   16.7   25.4  10.87 1.1678    116    1    100.0    5 
31/10/14   9:35   18.7   18.7   18.4    91   17.2   4.0   ESE   0.33   6.0     E   18.7   19.4   19.4  1017.9  0.00   0.0   0.000   0.001   25.1    60   16.7   25.5  10.87 1.1675    116    1    100.0    5 
31/10/14   9:40   18.9   18.9   18.7    90   17.2   3.0   ESE   0.25   6.0     E   18.9   19.6   19.6  1017.9  0.00   0.0   0.000   0.002   25.1    60   16.8   25.6  10.86 1.1672    116    1    100.0    5 
31/10/14   9:45   19.2   19.2   18.9    90   17.5   4.0     E   0.33   6.0     E   19.2   20.0   20.0  1017.9  0.00   0.0   0.000   0.003   25.1    60   16.8   25.6  10.86 1.1672    118    1    100.0    5 
31/10/14   9:50   19.4   19.4   19.2    89   17.5   4.0   ESE   0.33   6.0     E   19.4   20.2   20.2  1017.9  0.00   0.0   0.000   0.004   25.2    60   16.9   25.6  10.86 1.1669    117    1    100.0    5 
31/10/14   9:55   19.7   19.7   19.4    88   17.6   4.0   ESE   0.33   8.0   ESE   19.7   20.5   20.5  1017.9  0.00   0.0   0.000   0.005   25.2    60   16.9   25.6  10.86 1.1669    117    1    100.0    5 
31/10/14  10:00   19.9   19.9   19.7    87   17.7   4.0   ESE   0.33   7.0     E   19.9   20.8   20.8  1017.9  0.00   0.0   0.000   0.006   25.2    60   16.9   25.7  10.85 1.1666    117    1    100.0    5 
31/10/14  10:05   20.2   20.2   19.9    87   18.0   4.0   ESE   0.33   8.0   ESE   20.2   21.2   21.2  1017.9  0.00   0.0   0.000   0.007   25.3    60   17.0   25.8  10.85 1.1663    117    1    100.0    5 
31/10/14  10:10   20.3   20.3   20.2    85   17.7   5.0     E   0.42   8.0   ESE   20.3   21.3   21.3  1017.9  0.00   0.0   0.000   0.007   25.3    60   17.0   25.8  10.85 1.1660    117    1    100.0    5 
31/10/14  10:15   20.4   20.4   20.3    84   17.6   6.0     E   0.50   9.0   ESE   20.4   21.4   21.4  1017.9  0.00   0.0   0.000   0.007   25.3    60   17.0   25.8  10.85 1.1660    116    1    100.0    5 
31/10/14  10:20   20.6   20.6   20.4    83   17.6   6.0   ESE   0.50   9.0   ESE   20.6   21.5   21.5  1017.7  0.00   0.0   0.000   0.008   25.4    60   17.1   25.9  10.84 1.1656    117    1    100.0    5 
31/10/14  10:25   20.8   20.8   20.6    83   17.8   5.0   ESE   0.42   8.0     E   20.8   21.7   21.7  1017.7  0.00   0.0   0.000   0.009   25.4    60   17.1   25.9  10.84 1.1653    117    1    100.0    5 
31/10/14  10:30   21.0   21.0   20.8    82   17.8   7.0     E   0.58   9.0     E   21.0   21.7   21.7  1017.7  0.00   0.0   0.000   0.009   25.5    60   17.2   26.0  10.83 1.1650    116    1    100.0    5 
31/10/14  10:35   21.2   21.2   21.1    80   17.6   6.0     E   0.50  10.0     E   21.2   21.8   21.8  1017.8  0.00   0.0   0.000   0.010   25.6    60   17.2   26.1  10.83 1.1647    117    1    100.0    5 
31/10/14  10:40   21.4   21.4   21.2    80   17.8   5.0   ESE   0.42  10.0     E   21.4   22.1   22.1  1017.8  0.00   0.0   0.000   0.011   25.6    60   17.2   26.1  10.83 1.1648    117    1    100.0    5 
31/10/14  10:45   21.6   21.6   21.4    79   17.8   4.0   ESE   0.33   8.0   ESE   21.6   22.2   22.2  1017.8  0.00   0.0   0.000   0.011   25.6    60   17.3   26.1  10.83 1.1644    117    1    100.0    5 
31/10/14  10:50   21.7   21.7   21.6    78   17.7   5.0   ESE   0.42   8.0     E   21.7   22.3   22.3  1017.7  0.00   0.0   0.000   0.012   25.7    60   17.3   26.2  10.82 1.1641    117    1    100.0    5 
31/10/14  10:55   21.9   21.9   21.7    77   17.7   4.0     E   0.33   9.0   ESE   21.9   22.5   22.5  1017.6  0.00   0.0   0.000   0.012   25.7    60   17.4   26.3  10.82 1.1637    117    1    100.0    5 
31/10/14  11:00   22.1   22.1   21.9    76   17.6   5.0     E   0.42   9.0   ESE   22.1   22.6   22.6  1017.6  0.00   0.0   0.000   0.013   25.7    60   17.4   26.3  10.82 1.1636    116    1    100.0    5 
31/10/14  11:05   22.2   22.2   22.1    75   17.6   4.0   ESE   0.33   9.0   ENE   22.2   22.8   22.8  1017.6  0.00   0.0   0.000   0.014   25.8    60   17.4   26.3  10.81 1.1634    117    1    100.0    5 
31/10/14  11:10   22.3   22.3   22.2    74   17.5   5.0     E   0.42   9.0   ESE   22.3   22.9   22.9  1017.5  0.00   0.0   0.000   0.014   25.8    60   17.5   26.4  10.81 1.1630    117    1    100.0    5 
31/10/14  11:15   22.5   22.5   22.3    74   17.6   5.0     E   0.42   9.0   ESE   22.5   23.2   23.2  1017.5  0.00   0.0   0.000   0.014   25.8    60   17.5   26.4  10.81 1.1630    117    1    100.0    5 
31/10/14  11:20   22.6   22.6   22.5    72   17.3   5.0     E   0.42  10.0   ESE   22.6   23.2   23.2  1017.5  0.00   0.0   0.000   0.015   25.9    60   17.5   26.4  10.81 1.1626    117    1    100.0    5 
31/10/14  11:25   22.6   22.6   22.6    72   17.3   5.0     E   0.42   9.0     E   22.6   23.2   23.2  1017.4  0.00   0.0   0.000   0.015   25.9    60   17.6   26.5  10.80 1.1623    117    1    100.0    5 
31/10/14  11:30   22.6   22.6   22.6    72   17.3   5.0     E   0.42   8.0     E   22.6   23.2   23.2  1017.5  0.00   0.0   0.000   0.015   26.0    60   17.6   26.6  10.80 1.1621    117    1    100.0    5 
31/10/14  11:35   22.7   22.7   22.6    71   17.2   6.0     E   0.50   9.0     E   22.7   23.3   23.3  1017.4  0.00   0.0   0.000   0.015   26.0    60   17.6   26.6  10.80 1.1620    116    1    100.0    5 
31/10/14  11:40   22.8   22.8   22.7    71   17.2   5.0     E   0.42   8.0     E   22.8   23.4   23.4  1017.4  0.00   0.0   0.000   0.015   26.1    60   17.7   26.7  10.79 1.1617    117    1    100.0    5 
31/10/14  11:45   22.9   22.9   22.8    72   17.6   5.0     E   0.42   8.0     E   22.9   23.7   23.7  1017.4  0.00   0.0   0.000   0.016   26.1    60   17.7   26.7  10.79 1.1613    117    1    100.0    5 
31/10/14  11:50   23.1   23.1   22.9    71   17.6   5.0   ESE   0.42   8.0   ESE   23.1   23.9   23.9  1017.3  0.00   0.0   0.000   0.017   26.2    60   17.8   26.8  10.79 1.1610    117    1    100.0    5 
31/10/14  11:55   23.3   23.3   23.2    70   17.6   5.0   ESE   0.42  10.0     E   23.3   24.2   24.2  1017.3  0.00   0.0   0.000   0.017   26.2    60   17.8   26.8  10.79 1.1610    116    1    100.0    5 
31/10/14  12:00   23.3   23.3   23.3    70   17.6   5.0     E   0.42   9.0     E   23.3   24.2   24.2  1017.2  0.00   0.0   0.000   0.017   26.2    60   17.8   26.8  10.78 1.1606    117    1    100.0    5 
31/10/14  12:05   23.4   23.4   23.3    69   17.4   5.0   ESE   0.42  10.0   ESE   23.4   24.3   24.3  1017.1  0.00   0.0   0.000   0.018   26.3    60   17.9   26.9  10.78 1.1602    117    1    100.0    5 
31/10/14  12:10   23.6   23.6   23.4    69   17.6   5.0   ESE   0.42   9.0     E   23.6   24.5   24.5  1017.0  0.00   0.0   0.000   0.018   26.3    60   17.9   26.9  10.78 1.1600    117    1    100.0    5 
31/10/14  12:15   23.8   23.8   23.6    68   17.5   4.0   ESE   0.33   8.0     E   23.8   24.6   24.6  1016.9  0.00   0.0   0.000   0.019   26.3    60   17.9   27.0  10.77 1.1597    115    1    100.0    5 
31/10/14  12:20   23.8   23.8   23.8    67   17.3   6.0   ESE   0.50   9.0   ESE   23.8   24.6   24.6  1016.9  0.00   0.0   0.000   0.019   26.3    60   17.9   27.0  10.77 1.1596    117    1    100.0    5 
31/10/14  12:25   23.8   23.8   23.8    67   17.3   7.0   ESE   0.58  10.0   ESE   23.8   24.6   24.6  1016.8  0.00   0.0   0.000   0.019   26.4    60   18.0   27.1  10.77 1.1592    117    1    100.0    5 
31/10/14  12:30   23.7   23.8   23.7    66   17.0   6.0   ESE   0.50  10.0   ESE   23.7   24.5   24.5  1016.7  0.00   0.0   0.000   0.019   26.4    60   18.1   27.1  10.77 1.1588    117    1    100.0    5 
31/10/14  12:35   23.8   23.8   23.7    67   17.3   6.0   ESE   0.50  10.0   ESE   23.8   24.6   24.6  1016.6  0.00   0.0   0.000   0.019   26.4    60   18.1   27.1  10.77 1.1587    117    1    100.0    5 
31/10/14  12:40   23.9   23.9   23.8    65   17.0   6.0   ESE   0.50   9.0   ESE   23.9   24.7   24.7  1016.6  0.00   0.0   0.000   0.019   26.5    60   18.1   27.2  10.76 1.1583    117    1    100.0    5 
31/10/14  12:45   24.1   24.1   23.9    64   16.8   6.0   ESE   0.50  10.0     E   24.1   24.7   24.7  1016.4  0.00   0.0   0.000   0.020   26.6    60   18.2   27.3  10.76 1.1578    116    1    100.0    5 
31/10/14  12:50   24.1   24.1   24.1    65   17.1   4.0     E   0.33   8.0     E   24.1   24.8   24.8  1016.3  0.00   0.0   0.000   0.020   26.6    60   18.2   27.3  10.75 1.1574    117    1    100.0    5 
31/10/14  12:55   24.2   24.2   24.1    64   17.0   5.0     E   0.42  10.0     E   24.2   24.8   24.8  1016.3  0.00   0.0   0.000   0.020   26.6    60   18.2   27.3  10.75 1.1574    116    1    100.0    5 
31/10/14  13:00   24.3   24.3   24.2    63   16.8   6.0     E   0.50   9.0   ENE   24.3   24.8   24.8  1016.3  0.00   0.0   0.000   0.021   26.6    60   18.2   27.3  10.75 1.1574    117    1    100.0    5 
31/10/14  13:05   24.3   24.3   24.3    63   16.8   6.0     E   0.50   9.0   ESE   24.3   24.9   24.9  1016.3  0.00   0.0   0.000   0.021   26.7    60   18.3   27.4  10.75 1.1568    115    1    100.0    5 
31/10/14  13:10   24.4   24.4   24.3    64   17.2   6.0     E   0.50   9.0     E   24.4   25.1   25.1  1016.2  0.00   0.0   0.000   0.021   26.7    60   18.3   27.4  10.75 1.1567    117    1    100.0    5 
31/10/14  13:15   24.6   24.6   24.4    63   17.0   7.0     E   0.58  11.0   ESE   24.6   25.1   25.1  1016.2  0.00   0.0   0.000   0.022   26.7    59   18.0   27.4  10.55 1.1571    117    1    100.0    5 
31/10/14  13:20   24.4   24.6   24.4    62   16.6   6.0   ENE   0.50  10.0   ENE   24.4   24.9   24.9  1016.1  0.00   0.0   0.000   0.021   26.7    58   17.8   27.3  10.35 1.1574    117    1    100.0    5 
31/10/14  13:25   24.2   24.4   24.2    63   16.7   5.0     E   0.42   9.0     E   24.2   24.8   24.8  1016.0  0.00   0.0   0.000   0.020   26.7    58   17.8   27.3  10.35 1.1573    117    1    100.0    5 
31/10/14  13:30   24.2   24.2   24.2    62   16.4   5.0     E   0.42  10.0   ESE   24.2   24.7   24.7  1016.0  0.00   0.0   0.000   0.020   26.7    57   17.5   27.3  10.15 1.1577    117    1    100.0    5 
31/10/14  13:35   24.2   24.2   24.2    62   16.5   6.0     E   0.50  10.0     E   24.2   24.8   24.8  1016.0  0.00   0.0   0.000   0.020   26.7    57   17.5   27.3  10.15 1.1577    117    1    100.0    5 
31/10/14  13:40   24.3   24.3   24.2    62   16.5   7.0     E   0.58   9.0     E   24.3   24.8   24.8  1015.9  0.00   0.0   0.000   0.021   26.7    57   17.4   27.2  10.15 1.1579    117    1    100.0    5 
31/10/14  13:45   24.3   24.3   24.3    61   16.3   6.0     E   0.50   9.0     E   24.3   24.8   24.8  1015.9  0.00   0.0   0.000   0.021   26.7    56   17.2   27.1  10.05 1.1583    117    1    100.0    5 
31/10/14  13:50   24.2   24.3   24.2    62   16.5   5.0     E   0.42   9.0   ENE   24.2   24.8   24.8  1015.9  0.00   0.0   0.000   0.020   26.6    56   17.1   27.1  10.05 1.1586    116    1    100.0    5 
31/10/14  13:55   24.3   24.3   24.2    62   16.5   5.0     E   0.42   8.0     E   24.3   24.8   24.8  1015.9  0.00   0.0   0.000   0.021   26.6    56   17.1   27.1  10.05 1.1586    117    1    100.0    5 
31/10/14  14:00   24.2   24.3   24.2    62   16.5   6.0   ENE   0.50   9.0   ENE   24.2   24.8   24.8  1015.8  0.00   0.0   0.000   0.020   26.7    56   17.2   27.1  10.05 1.1582    118    1    100.0    5 
31/10/14  14:05   24.1   24.2   24.1    62   16.4   6.0   ENE   0.50  11.0   ENE   24.1   24.7   24.7  1015.8  0.00   0.0   0.000   0.020   26.7    56   17.2   27.1  10.05 1.1581    117    1    100.0    5 
31/10/14  14:10   24.1   24.1   24.1    62   16.3   5.0     E   0.42   9.0     E   24.1   24.6   24.6  1015.8  0.20   0.0   0.000   0.020   26.7    56   17.2   27.1  10.05 1.1581    117    1    100.0    5 
31/10/14  14:15   23.9   24.1   23.9    62   16.2   7.0     E   0.58  10.0     E   23.9   24.5   24.5  1015.7  0.00   0.0   0.000   0.019   26.7    55   16.9   27.1   9.85 1.1585    117    1    100.0    5 
31/10/14  14:20   23.9   24.0   23.9    63   16.5   7.0     E   0.58  10.0     E   23.9   24.6   24.6  1015.7  0.00   0.0   0.000   0.019   26.7    55   16.9   27.1   9.85 1.1585    117    1    100.0    5 
31/10/14  14:25   23.8   23.9   23.8    64   16.6   7.0     E   0.58  10.0     E   23.8   24.5   24.5  1015.6  0.00   0.0   0.000   0.019   26.7    55   16.9   27.1   9.85 1.1584    117    1    100.0    5 
31/10/14  14:30   23.8   23.8   23.8    64   16.6   8.0     E   0.67  11.0     E   23.5   24.4   24.2  1015.6  0.00   0.0   0.000   0.019   26.7    55   16.9   27.1   9.85 1.1583    117    1    100.0    5 
31/10/14  14:35   23.6   23.8   23.6    64   16.4   8.0     E   0.67  11.0     E   23.3   24.3   24.0  1015.5  0.00   0.0   0.000   0.018   26.7    55   16.9   27.1   9.85 1.1583    116    1    100.0    5 
31/10/14  14:40   23.4   23.6   23.4    65   16.5   8.0     E   0.67  11.0     E   23.2   24.1   23.8  1015.5  0.00   0.0   0.000   0.018   26.7    55   16.9   27.1   9.85 1.1582    117    1    100.0    5 
31/10/14  14:45   23.3   23.4   23.3    66   16.6   8.0     E   0.67  13.0     E   23.0   23.9   23.7  1015.4  0.00   0.0   0.000   0.017   26.9    55   17.1   27.3   9.85 1.1570    117    1    100.0    5 
31/10/14  14:50   23.1   23.3   23.1    66   16.4   8.0     E   0.67  13.0     E   22.8   23.6   23.3  1015.4  0.00   0.0   0.000   0.016   27.1    54   17.0   27.5   9.75 1.1563    117    1    100.0    5 
31/10/14  14:55   22.7   23.1   22.7    67   16.3   8.0     E   0.67  13.0     E   22.4   23.2   22.9  1015.4  0.00   0.0   0.000   0.015   27.1    54   16.9   27.4   9.75 1.1565    116    1    100.0    5 
31/10/14  15:00   22.4   22.7   22.4    67   16.0   7.0     E   0.58  14.0     E   22.4   22.8   22.8  1015.3  0.00   0.0   0.000   0.014   27.0    54   16.9   27.4   9.75 1.1567    118    1    100.0    5 
31/10/14  15:05   22.2   22.4   22.2    68   16.0   7.0     E   0.58  11.0   ENE   22.2   22.4   22.4  1015.3  0.00   0.0   0.000   0.013   26.9    54   16.8   27.3   9.75 1.1572    116    1    100.0    5 
31/10/14  15:10   21.8   22.2   21.8    69   15.8   8.0   ENE   0.67  13.0   ENE   21.5   22.0   21.7  1015.3  0.00   0.0   0.000   0.012   26.8    54   16.7   27.2   9.75 1.1575    115    1    100.0    5 
31/10/14  15:15   21.5   21.8   21.5    69   15.6   7.0   ENE   0.58  11.0   ENE   21.5   21.6   21.6  1015.3  0.00   0.0   0.000   0.011   26.8    54   16.7   27.1   9.75 1.1579    117    1    100.0    5 
31/10/14  15:20   21.2   21.5   21.2    70   15.5   7.0   ENE   0.58  13.0     E   21.2   21.2   21.2  1015.2  0.00   0.0   0.000   0.010   26.7    54   16.6   27.1   9.75 1.1581    117    1    100.0    5 
31/10/14  15:25   21.1   21.2   21.1    71   15.6   6.0   ENE   0.50  13.0     E   21.1   21.2   21.2  1015.3  0.00   0.0   0.000   0.009   26.7    54   16.6   27.0   9.75 1.1584    117    1    100.0    5 
31/10/14  15:30   21.1   21.1   21.1    71   15.6   5.0     E   0.42  10.0     E   21.1   21.2   21.2  1015.3  0.00   0.0   0.000   0.009   26.7    54   16.6   27.0   9.75 1.1584    117    1    100.0    5 
31/10/14  15:35   21.1   21.1   21.1    71   15.6   7.0     E   0.58  12.0   ENE   21.1   21.2   21.2  1015.3  0.00   0.0   0.000   0.010   26.6    54   16.5   26.9   9.75 1.1587    117    1    100.0    5 
31/10/14  15:40   20.9   21.1   20.9    71   15.5   8.0     E   0.67  11.0     E   20.6   21.1   20.8  1015.2  0.00   0.0   0.000   0.009   26.6    54   16.5   26.9   9.75 1.1589    116    1    100.0    5 
31/10/14  15:45   20.7   20.9   20.7    72   15.5   7.0     E   0.58  11.0     E   20.7   21.0   21.0  1015.2  0.00   0.0   0.000   0.008   26.6    54   16.5   26.9   9.75 1.1589    117    1    100.0    5 
31/10/14  15:50   20.6   20.7   20.6    72   15.3   6.0     E   0.50  11.0     E   20.6   20.9   20.9  1015.1  0.00   0.0   0.000   0.008   26.6    54   16.5   26.9   9.75 1.1588    117    1    100.0    5 
31/10/14  15:55   20.3   20.6   20.3    73   15.3   6.0     E   0.50  10.0     E   20.3   20.8   20.8  1015.2  0.00   0.0   0.000   0.007   26.6    54   16.5   26.9   9.75 1.1588    116    1    100.0    5 
31/10/14  16:00   20.2   20.3   20.2    73   15.2   6.0     E   0.50   9.0     E   20.2   20.6   20.6  1015.1  0.00   0.0   0.000   0.006   26.6    54   16.5   26.9   9.75 1.1585    116    1    100.0    5 
31/10/14  16:05   20.0   20.2   20.0    74   15.2   6.0   ENE   0.50   9.0   ENE   20.0   20.4   20.4  1015.1  0.00   0.0   0.000   0.006   26.6    54   16.5   26.9   9.75 1.1585    117    1    100.0    5 
31/10/14  16:10   19.8   20.0   19.8    74   15.1   6.0   ENE   0.50   9.0     E   19.8   20.3   20.3  1015.0  0.00   0.0   0.000   0.005   26.6    54   16.5   26.9   9.75 1.1584    116    1    100.0    5 
31/10/14  16:15   19.7   19.8   19.7    74   15.0   6.0     E   0.50  10.0     E   19.7   20.1   20.1  1015.0  0.00   0.0   0.000   0.005   26.6    55   16.8   27.0   9.85 1.1580    117    1    100.0    5 
31/10/14  16:20   19.6   19.7   19.6    75   15.0   6.0   ENE   0.50  10.0     E   19.6   19.9   19.9  1015.0  0.00   0.0   0.000   0.004   26.6    55   16.8   27.0   9.85 1.1580    117    1    100.0    5 
31/10/14  16:25   19.4   19.6   19.4    75   14.8   5.0     E   0.42   9.0     E   19.4   19.8   19.8  1015.1  0.00   0.0   0.000   0.004   26.6    55   16.8   27.0   9.85 1.1580    116    1    100.0    5 
31/10/14  16:30   19.1   19.3   19.1    75   14.6   4.0   ENE   0.33   8.0   ENE   19.1   19.4   19.4  1015.1  0.00   0.0   0.000   0.003   26.6    55   16.8   26.9   9.86 1.1583    117    1    100.0    5 
31/10/14  16:35   18.9   19.2   18.9    75   14.4   4.0   ENE   0.33   9.0     E   18.9   19.2   19.2  1015.1  0.00   0.0   0.000   0.002   26.6    55   16.8   26.9   9.86 1.1584    117    1    100.0    5 
31/10/14  16:40   18.8   18.9   18.8    76   14.5   4.0     E   0.33   8.0     E   18.8   19.1   19.1  1015.1  0.00   0.0   0.000   0.002   26.5    55   16.7   26.9   9.86 1.1586    115    1    100.0    5 
31/10/14  16:45   18.7   18.8   18.7    76   14.3   5.0     E   0.42   8.0     E   18.7   18.9   18.9  1015.1  0.00   0.0   0.000   0.001   26.4    55   16.7   26.8   9.87 1.1589    116    1    100.0    5 
31/10/14  16:50   18.6   18.7   18.6    77   14.4   5.0     E   0.42   8.0     E   18.6   18.8   18.8  1015.1  0.00   0.0   0.000   0.001   26.4    55   16.7   26.8   9.87 1.1589    117    1    100.0    5 
31/10/14  16:55   18.5   18.6   18.5    77   14.4   5.0     E   0.42   8.0     E   18.5   18.8   18.8  1015.1  0.00   0.0   0.000   0.001   26.4    55   16.6   26.7   9.87 1.1592    115    1    100.0    5 
31/10/14  17:00   18.4   18.5   18.4    77   14.3   7.0     E   0.58   9.0     E   18.4   18.7   18.7  1015.0  0.00   0.0   0.000   0.000   26.4    55   16.6   26.7   9.87 1.1591    116    1    100.0    5 
31/10/14  17:05   18.3   18.4   18.3    78   14.4   7.0   ESE   0.58  10.0     E   18.3   18.6   18.6  1015.0  0.00   0.0   0.000   0.000   26.4    55   16.6   26.7   9.87 1.1591    116    1    100.0    5 
31/10/14  17:10   18.3   18.3   18.3    78   14.4   6.0   ESE   0.50   9.0   ESE   18.3   18.6   18.6  1015.0  0.00   0.0   0.000   0.000   26.4    54   16.3   26.7   9.76 1.1595    118    1    100.0    5 
31/10/14  17:15   18.2   18.3   18.2    78   14.3   6.0     E   0.50   9.0     E   18.2   18.5   18.5  1014.9  0.00   0.0   0.000   0.000   26.4    55   16.6   26.7   9.87 1.1590    117    1    100.0    5 
31/10/14  17:20   18.1   18.2   18.1    79   14.4   6.0     E   0.50   8.0     E   18.1   18.4   18.4  1015.0  0.00   0.0   0.001   0.000   26.4    56   16.9   26.8  10.07 1.1587    117    1    100.0    5 
31/10/14  17:25   18.0   18.1   18.0    79   14.3   6.0     E   0.50   9.0     E   18.0   18.3   18.3  1015.0  0.00   0.0   0.001   0.000   26.4    56   17.0   26.9  10.07 1.1584    117    1    100.0    5 
31/10/14  17:30   17.9   18.0   17.9    79   14.2   7.0     E   0.58   9.0     E   17.9   18.2   18.2  1015.0  0.00   0.0   0.001   0.000   26.5    57   17.3   27.0  10.16 1.1577    117    1    100.0    5 
31/10/14  17:35   17.9   17.9   17.9    80   14.4   7.0     E   0.58  10.0     E   17.9   18.2   18.2  1015.0  0.00   0.0   0.002   0.000   26.6    58   17.7   27.2  10.35 1.1567    117    1    100.0    5 
31/10/14  17:40   17.8   17.9   17.8    80   14.3   6.0     E   0.50   8.0   ESE   17.8   18.1   18.1  1015.0  0.00   0.0   0.002   0.000   26.7    59   18.0   27.3  10.55 1.1560    117    1    100.0    5 
31/10/14  17:45   17.8   17.8   17.8    80   14.3   6.0     E   0.50   9.0     E   17.8   18.1   18.1  1015.0  0.00   0.0   0.002   0.000   26.8    59   18.1   27.5  10.55 1.1555    117    1    100.0    5 
31/10/14  17:50   17.7   17.8   17.7    81   14.4   7.0     E   0.58   9.0     E   17.7   18.0   18.0  1014.9  0.00   0.0   0.002   0.000   26.8    60   18.4   27.6  10.75 1.1547    117    1    100.0    5 
31/10/14  17:55   17.7   17.7   17.7    81   14.4   8.0     E   0.67  10.0     E   17.2   17.9   17.5  1014.9  0.00   0.0   0.002   0.000   26.8    60   18.4   27.6  10.75 1.1547    116    1    100.0    5 
31/10/14  18:00   17.6   17.7   17.6    81   14.3   7.0     E   0.58  10.0   ESE   17.6   17.9   17.9  1014.9  0.00   0.0   0.003   0.000   26.9    60   18.5   27.7  10.75 1.1543    116    1    100.0    5 
31/10/14  18:05   17.6   17.6   17.6    81   14.3   6.0   ESE   0.50   9.0   ESE   17.6   17.8   17.8  1014.9  0.00   0.0   0.003   0.000   26.9    60   18.5   27.7  10.75 1.1543    116    1    100.0    5 
31/10/14  18:10   17.6   17.6   17.6    82   14.4   5.0   ESE   0.42   9.0     E   17.6   17.8   17.8  1014.9  0.00   0.0   0.003   0.000   26.9    60   18.5   27.7  10.75 1.1544    118    1    100.0    5 
31/10/14  18:15   17.5   17.6   17.5    82   14.4   5.0   ESE   0.42   8.0   ESE   17.5   17.8   17.8  1014.9  0.00   0.0   0.003   0.000   26.9    60   18.5   27.7  10.75 1.1544    116    1    100.0    5 
31/10/14  18:20   17.4   17.5   17.4    82   14.3   5.0   ESE   0.42   8.0   ESE   17.4   17.6   17.6  1014.9  0.00   0.0   0.003   0.000   26.9    61   18.7   27.8  10.95 1.1539    116    1    100.0    5 
31/10/14  18:25   17.3   17.4   17.3    82   14.2   4.0   ESE   0.33   7.0   ESE   17.3   17.6   17.6  1014.9  0.00   0.0   0.003   0.000   26.8    61   18.7   27.7  10.95 1.1543    116    1    100.0    5 
31/10/14  18:30   17.3   17.3   17.3    82   14.2   3.0   ESE   0.25   6.0     E   17.3   17.5   17.5  1014.9  0.00   0.0   0.004   0.000   26.8    61   18.7   27.7  10.95 1.1542    116    1    100.0    5 
31/10/14  18:35   17.2   17.3   17.2    83   14.3   3.0     E   0.25   6.0     E   17.2   17.4   17.4  1014.8  0.00   0.0   0.004   0.000   26.8    61   18.7   27.7  10.95 1.1542    116    1    100.0    5 
31/10/14  18:40   17.2   17.2   17.2    83   14.3   3.0     E   0.25   5.0     E   17.2   17.4   17.4  1014.8  0.00   0.0   0.004   0.000   26.8    61   18.7   27.7  10.95 1.1542    117    1    100.0    5 
31/10/14  18:45   17.1   17.2   17.1    83   14.1   3.0   ESE   0.25   5.0    SE   17.1   17.3   17.3  1014.8  0.00   0.0   0.004   0.000   26.8    61   18.7   27.7  10.95 1.1542    117    1    100.0    5 
31/10/14  18:50   17.0   17.1   17.0    83   14.1   3.0   SSE   0.25   5.0   SSE   17.0   17.2   17.2  1014.8  0.00   0.0   0.005   0.000   26.8    61   18.6   27.6  10.95 1.1545    116    1    100.0    5 
31/10/14  18:55   16.9   17.0   16.9    84   14.2   2.0   SSE   0.17   3.0   SSE   16.9   17.2   17.2  1014.9  0.00   0.0   0.005   0.000   26.8    61   18.7   27.7  10.95 1.1542    117    1    100.0    5 
31/10/14  19:00   16.9   16.9   16.9    84   14.2   0.0   SSE   0.00   2.0   SSE   16.9   17.2   17.2  1014.8  0.00   0.0   0.005   0.000   26.8    61   18.6   27.6  10.95 1.1545    117    1    100.0    5 
31/10/14  19:05   16.9   16.9   16.9    84   14.2   0.0   SSE   0.00   2.0   SSE   16.9   17.1   17.1  1014.8  0.00   0.0   0.005   0.000   26.8    61   18.6   27.6  10.95 1.1545    117    1    100.0    5 
31/10/14  19:10   16.8   16.9   16.8    84   14.1   0.0   SSE   0.00   1.0   SSE   16.8   17.0   17.0  1014.8  0.00   0.0   0.005   0.000   26.8    61   18.6   27.6  10.95 1.1545    117    1    100.0    5 
31/10/14  19:15   16.8   16.8   16.8    84   14.1   0.0   SSE   0.00   2.0   SSE   16.8   16.9   16.9  1014.9  0.00   0.0   0.005   0.000   26.8    61   18.6   27.6  10.95 1.1545    118    1    100.0    5 
31/10/14  19:20   16.7   16.8   16.7    85   14.1   1.0   SSE   0.08   3.0   SSE   16.7   16.8   16.8  1014.9  0.00   0.0   0.006   0.000   26.8    61   18.6   27.6  10.95 1.1545    115    1    100.0    5 
31/10/14  19:25   16.7   16.7   16.7    85   14.1   2.0   SSE   0.17   3.0     S   16.7   16.8   16.8  1014.9  0.00   0.0   0.006   0.000   26.7    61   18.6   27.6  10.95 1.1549    117    1    100.0    5 
31/10/14  19:30   16.8   16.8   16.7    86   14.4   4.0     S   0.33   6.0     S   16.8   17.0   17.0  1014.9  0.00   0.0   0.005   0.000   26.7    61   18.6   27.6  10.95 1.1548    115    1    100.0    5 
31/10/14  19:35   16.9   16.9   16.8    86   14.5   6.0   SSE   0.50   7.0     S   16.9   17.1   17.1  1014.9  0.00   0.0   0.005   0.000   26.7    62   18.8   27.6  11.15 1.1544    117    1    100.0    5 
31/10/14  19:40   16.9   16.9   16.8    86   14.6   6.0   SSE   0.50   8.0   SSE   16.9   17.2   17.2  1014.8  0.00   0.0   0.005   0.000   26.7    62   18.8   27.6  11.15 1.1543    116    1    100.0    5 
31/10/14  19:45   17.0   17.0   16.9    86   14.6   7.0   SSE   0.58  10.0     S   16.9   17.3   17.2  1014.9  0.00   0.0   0.005   0.000   26.7    62   18.8   27.6  11.15 1.1544    116    1    100.0    5 
31/10/14  19:50   17.0   17.1   17.0    86   14.6   7.0   SSE   0.58  10.0     S   16.9   17.3   17.2  1014.9  0.00   0.0   0.005   0.000   26.7    62   18.8   27.6  11.15 1.1544    116    1    100.0    5 
31/10/14  19:55   17.1   17.1   17.1    86   14.7   6.0   SSE   0.50   9.0     S   17.1   17.3   17.3  1014.9  0.00   0.0   0.004   0.000   26.8    62   18.9   27.7  11.15 1.1542    117    1    100.0    5 
31/10/14  20:00   17.1   17.1   17.1    86   14.7   5.0   SSE   0.42   7.0     S   17.1   17.4   17.4  1014.9  0.00   0.0   0.004   0.000   26.7    61   18.6   27.6  10.95 1.1549    117    1    100.0    5 
31/10/14  20:05   17.1   17.1   17.1    86   14.7   6.0   SSE   0.50   7.0   SSE   17.1   17.4   17.4  1015.0  0.00   0.0   0.004   0.000   26.7    61   18.6   27.6  10.95 1.1549    117    1    100.0    5 
31/10/14  20:10   17.1   17.1   17.1    86   14.7   5.0   SSE   0.42   7.0   SSE   17.1   17.3   17.3  1014.9  0.00   0.0   0.004   0.000   26.7    61   18.6   27.6  10.95 1.1549    117    1    100.0    5 
31/10/14  20:15   17.1   17.1   17.1    86   14.7   7.0   SSE   0.58  10.0   SSE   16.9   17.3   17.2  1014.9  0.00   0.0   0.004   0.000   26.7    61   18.5   27.4  10.95 1.1552    117    1    100.0    5 
31/10/14  20:20   17.1   17.1   17.1    86   14.7   8.0   SSE   0.67  12.0   SSE   16.6   17.4   16.9  1014.9  0.00   0.0   0.004   0.000   26.7    61   18.5   27.4  10.95 1.1551    117    1    100.0    5 
31/10/14  20:25   17.1   17.1   17.1    86   14.7   7.0     S   0.58  10.0     S   17.1   17.4   17.3  1014.9  0.00   0.0   0.004   0.000   26.6    61   18.5   27.4  10.95 1.1554    116    1    100.0    5 
110418